<?xml version="1.0" encoding="UTF-8" standalone="no" ?>
<gpx xmlns="http://www.topografix.com/GPX/1/1" xmlns:xsi="http://www.w3.org/2001/XMLSchema-instance" xsi:schemaLocation="http://www.topografix.com/GPX/1/1 http://www.topografix.com/GPX/1/1/gpx.xsd" version="1.1" creator="VisuGPX - https://www.visugpx.com">
  <metadata>
    <name>D081-Hautpoul Passerelle 20/03/2021 10:16:39</name>
    <desc><![CDATA[Randonnée très agréable la plupart du temps en terrain boisé. Montée facile en pente douce depuis la vallée de l'Arnette jusqu'au sommet du Vacant de Brettes. 
La redescente vers la passerelle ne présente pas de difficulté. 
La passerelle très longue attire du monde.
Le village de Hautpoul est très pittoresque sur son piton rocheux.
Au retour, NE PAS PRENDRE la direction du chemin des Passes comme nous l'avons fait car nous sommes redescendus dans la vallée d'où nous avons dû remonter pour rejoindre le parking.
]]></desc>
  </metadata>
  <trk>
    <name><![CDATA[D081-Hautpoul Passerelle 20/03/2021 10:16:39]]></name>
    <trkseg>
      <trkpt lat="43.47457" lon="2.38299">
        <ele>399</ele>
        <time>2021-03-20T09:16:39Z</time>
      </trkpt>
      <trkpt lat="43.47458" lon="2.38299">
        <ele>398.60000610352</ele>
        <time>2021-03-20T09:17:04Z</time>
      </trkpt>
      <trkpt lat="43.4746" lon="2.38291">
        <ele>398.79998779297</ele>
        <time>2021-03-20T09:17:40Z</time>
      </trkpt>
      <trkpt lat="43.4746" lon="2.38292">
        <ele>398.79998779297</ele>
        <time>2021-03-20T09:18:28Z</time>
      </trkpt>
      <trkpt lat="43.4746" lon="2.38288">
        <ele>398.79998779297</ele>
        <time>2021-03-20T09:19:15Z</time>
      </trkpt>
      <trkpt lat="43.47459" lon="2.38289">
        <ele>398.79998779297</ele>
        <time>2021-03-20T09:19:47Z</time>
      </trkpt>
      <trkpt lat="43.47456" lon="2.38294">
        <ele>398.79998779297</ele>
        <time>2021-03-20T09:20:15Z</time>
      </trkpt>
      <trkpt lat="43.47455" lon="2.38295">
        <ele>398.79998779297</ele>
        <time>2021-03-20T09:20:41Z</time>
      </trkpt>
      <trkpt lat="43.47449" lon="2.38306">
        <ele>398.79998779297</ele>
        <time>2021-03-20T09:21:00Z</time>
      </trkpt>
      <trkpt lat="43.47445" lon="2.38327">
        <ele>399.39999389648</ele>
        <time>2021-03-20T09:21:16Z</time>
      </trkpt>
      <trkpt lat="43.47442" lon="2.38351">
        <ele>401.39999389648</ele>
        <time>2021-03-20T09:21:34Z</time>
      </trkpt>
      <trkpt lat="43.47452" lon="2.3836">
        <ele>403.39999389648</ele>
        <time>2021-03-20T09:21:49Z</time>
      </trkpt>
      <trkpt lat="43.47455" lon="2.38358">
        <ele>403.39999389648</ele>
        <time>2021-03-20T09:21:53Z</time>
      </trkpt>
      <trkpt lat="43.47468" lon="2.38352">
        <ele>402</ele>
        <time>2021-03-20T09:22:09Z</time>
      </trkpt>
      <trkpt lat="43.47472" lon="2.3835">
        <ele>401.79998779297</ele>
        <time>2021-03-20T09:22:13Z</time>
      </trkpt>
      <trkpt lat="43.47491" lon="2.38349">
        <ele>400.20001220703</ele>
        <time>2021-03-20T09:22:31Z</time>
      </trkpt>
      <trkpt lat="43.47509" lon="2.38346">
        <ele>398.39999389648</ele>
        <time>2021-03-20T09:22:47Z</time>
      </trkpt>
      <trkpt lat="43.47527" lon="2.38343">
        <ele>396.60000610352</ele>
        <time>2021-03-20T09:23:02Z</time>
      </trkpt>
      <trkpt lat="43.47531" lon="2.38341">
        <ele>396</ele>
        <time>2021-03-20T09:23:06Z</time>
      </trkpt>
      <trkpt lat="43.47552" lon="2.38336">
        <ele>394.20001220703</ele>
        <time>2021-03-20T09:23:23Z</time>
      </trkpt>
      <trkpt lat="43.47573" lon="2.38337">
        <ele>392.20001220703</ele>
        <time>2021-03-20T09:23:41Z</time>
      </trkpt>
      <trkpt lat="43.47585" lon="2.3834">
        <ele>391.20001220703</ele>
        <time>2021-03-20T09:23:50Z</time>
      </trkpt>
      <trkpt lat="43.47586" lon="2.38341">
        <ele>391</ele>
        <time>2021-03-20T09:23:51Z</time>
      </trkpt>
      <trkpt lat="43.47588" lon="2.38341">
        <ele>391</ele>
        <time>2021-03-20T09:23:52Z</time>
      </trkpt>
      <trkpt lat="43.47589" lon="2.38342">
        <ele>390.79998779297</ele>
        <time>2021-03-20T09:23:53Z</time>
      </trkpt>
      <trkpt lat="43.47591" lon="2.38342">
        <ele>390.60000610352</ele>
        <time>2021-03-20T09:23:54Z</time>
      </trkpt>
      <trkpt lat="43.47607" lon="2.38359">
        <ele>389</ele>
        <time>2021-03-20T09:24:10Z</time>
      </trkpt>
      <trkpt lat="43.47611" lon="2.38367">
        <ele>387.79998779297</ele>
        <time>2021-03-20T09:24:26Z</time>
      </trkpt>
      <trkpt lat="43.47612" lon="2.38373">
        <ele>387.60000610352</ele>
        <time>2021-03-20T09:24:53Z</time>
      </trkpt>
      <trkpt lat="43.4761" lon="2.3839">
        <ele>390</ele>
        <time>2021-03-20T09:25:12Z</time>
      </trkpt>
      <trkpt lat="43.47608" lon="2.38403">
        <ele>393</ele>
        <time>2021-03-20T09:25:29Z</time>
      </trkpt>
      <trkpt lat="43.47607" lon="2.38418">
        <ele>396</ele>
        <time>2021-03-20T09:25:47Z</time>
      </trkpt>
      <trkpt lat="43.47604" lon="2.38431">
        <ele>399.20001220703</ele>
        <time>2021-03-20T09:26:07Z</time>
      </trkpt>
      <trkpt lat="43.47602" lon="2.38444">
        <ele>402</ele>
        <time>2021-03-20T09:26:27Z</time>
      </trkpt>
      <trkpt lat="43.47602" lon="2.38454">
        <ele>404.39999389648</ele>
        <time>2021-03-20T09:26:46Z</time>
      </trkpt>
      <trkpt lat="43.47599" lon="2.38465">
        <ele>406.60000610352</ele>
        <time>2021-03-20T09:27:08Z</time>
      </trkpt>
      <trkpt lat="43.47599" lon="2.38479">
        <ele>408.79998779297</ele>
        <time>2021-03-20T09:27:29Z</time>
      </trkpt>
      <trkpt lat="43.47599" lon="2.38489">
        <ele>411.39999389648</ele>
        <time>2021-03-20T09:27:50Z</time>
      </trkpt>
      <trkpt lat="43.47598" lon="2.38493">
        <ele>411.79998779297</ele>
        <time>2021-03-20T09:27:54Z</time>
      </trkpt>
      <trkpt lat="43.47595" lon="2.38505">
        <ele>414.79998779297</ele>
        <time>2021-03-20T09:28:17Z</time>
      </trkpt>
      <trkpt lat="43.47594" lon="2.38517">
        <ele>417.20001220703</ele>
        <time>2021-03-20T09:28:37Z</time>
      </trkpt>
      <trkpt lat="43.47595" lon="2.38532">
        <ele>419.39999389648</ele>
        <time>2021-03-20T09:28:57Z</time>
      </trkpt>
      <trkpt lat="43.47596" lon="2.3854">
        <ele>421.60000610352</ele>
        <time>2021-03-20T09:29:15Z</time>
      </trkpt>
      <trkpt lat="43.47597" lon="2.38554">
        <ele>424.39999389648</ele>
        <time>2021-03-20T09:29:36Z</time>
      </trkpt>
      <trkpt lat="43.47596" lon="2.38565">
        <ele>426.60000610352</ele>
        <time>2021-03-20T09:29:55Z</time>
      </trkpt>
      <trkpt lat="43.47591" lon="2.38578">
        <ele>429</ele>
        <time>2021-03-20T09:30:13Z</time>
      </trkpt>
      <trkpt lat="43.47581" lon="2.3859">
        <ele>430</ele>
        <time>2021-03-20T09:30:30Z</time>
      </trkpt>
      <trkpt lat="43.47574" lon="2.386">
        <ele>431.60000610352</ele>
        <time>2021-03-20T09:30:51Z</time>
      </trkpt>
      <trkpt lat="43.47575" lon="2.38602">
        <ele>431.39999389648</ele>
        <time>2021-03-20T09:31:16Z</time>
      </trkpt>
      <trkpt lat="43.47569" lon="2.38606">
        <ele>431.60000610352</ele>
        <time>2021-03-20T09:31:25Z</time>
      </trkpt>
      <trkpt lat="43.4756" lon="2.38615">
        <ele>432.79998779297</ele>
        <time>2021-03-20T09:31:40Z</time>
      </trkpt>
      <trkpt lat="43.47552" lon="2.38627">
        <ele>434</ele>
        <time>2021-03-20T09:31:58Z</time>
      </trkpt>
      <trkpt lat="43.47544" lon="2.38644">
        <ele>435</ele>
        <time>2021-03-20T09:32:14Z</time>
      </trkpt>
      <trkpt lat="43.47536" lon="2.38659">
        <ele>437</ele>
        <time>2021-03-20T09:32:32Z</time>
      </trkpt>
      <trkpt lat="43.47526" lon="2.38678">
        <ele>438.20001220703</ele>
        <time>2021-03-20T09:32:50Z</time>
      </trkpt>
      <trkpt lat="43.4752" lon="2.38696">
        <ele>438.60000610352</ele>
        <time>2021-03-20T09:33:06Z</time>
      </trkpt>
      <trkpt lat="43.47512" lon="2.38718">
        <ele>440.20001220703</ele>
        <time>2021-03-20T09:33:24Z</time>
      </trkpt>
      <trkpt lat="43.47504" lon="2.38741">
        <ele>441.39999389648</ele>
        <time>2021-03-20T09:33:44Z</time>
      </trkpt>
      <trkpt lat="43.47495" lon="2.38763">
        <ele>442.39999389648</ele>
        <time>2021-03-20T09:34:01Z</time>
      </trkpt>
      <trkpt lat="43.47483" lon="2.38784">
        <ele>443.20001220703</ele>
        <time>2021-03-20T09:34:19Z</time>
      </trkpt>
      <trkpt lat="43.47471" lon="2.38794">
        <ele>445.20001220703</ele>
        <time>2021-03-20T09:34:36Z</time>
      </trkpt>
      <trkpt lat="43.47462" lon="2.38801">
        <ele>447.79998779297</ele>
        <time>2021-03-20T09:34:56Z</time>
      </trkpt>
      <trkpt lat="43.47451" lon="2.38809">
        <ele>450.39999389648</ele>
        <time>2021-03-20T09:35:16Z</time>
      </trkpt>
      <trkpt lat="43.47436" lon="2.38816">
        <ele>452.79998779297</ele>
        <time>2021-03-20T09:35:38Z</time>
      </trkpt>
      <trkpt lat="43.47428" lon="2.38821">
        <ele>453.39999389648</ele>
        <time>2021-03-20T09:35:48Z</time>
      </trkpt>
      <trkpt lat="43.47415" lon="2.38831">
        <ele>452.39999389648</ele>
        <time>2021-03-20T09:36:03Z</time>
      </trkpt>
      <trkpt lat="43.47405" lon="2.38835">
        <ele>452.20001220703</ele>
        <time>2021-03-20T09:36:20Z</time>
      </trkpt>
      <trkpt lat="43.47399" lon="2.38836">
        <ele>452.20001220703</ele>
        <time>2021-03-20T09:36:24Z</time>
      </trkpt>
      <trkpt lat="43.47387" lon="2.3884">
        <ele>451.39999389648</ele>
        <time>2021-03-20T09:36:36Z</time>
      </trkpt>
      <trkpt lat="43.47372" lon="2.3885">
        <ele>452</ele>
        <time>2021-03-20T09:36:52Z</time>
      </trkpt>
      <trkpt lat="43.47365" lon="2.38868">
        <ele>450</ele>
        <time>2021-03-20T09:37:08Z</time>
      </trkpt>
      <trkpt lat="43.47363" lon="2.38878">
        <ele>448.60000610352</ele>
        <time>2021-03-20T09:37:16Z</time>
      </trkpt>
      <trkpt lat="43.47354" lon="2.38897">
        <ele>446.60000610352</ele>
        <time>2021-03-20T09:37:33Z</time>
      </trkpt>
      <trkpt lat="43.47348" lon="2.38909">
        <ele>445.39999389648</ele>
        <time>2021-03-20T09:37:46Z</time>
      </trkpt>
      <trkpt lat="43.47336" lon="2.38912">
        <ele>443.60000610352</ele>
        <time>2021-03-20T09:37:58Z</time>
      </trkpt>
      <trkpt lat="43.47329" lon="2.3892">
        <ele>442</ele>
        <time>2021-03-20T09:38:12Z</time>
      </trkpt>
      <trkpt lat="43.47325" lon="2.3894">
        <ele>440</ele>
        <time>2021-03-20T09:38:30Z</time>
      </trkpt>
      <trkpt lat="43.47318" lon="2.38962">
        <ele>437.39999389648</ele>
        <time>2021-03-20T09:38:49Z</time>
      </trkpt>
      <trkpt lat="43.47313" lon="2.38983">
        <ele>435.20001220703</ele>
        <time>2021-03-20T09:39:08Z</time>
      </trkpt>
      <trkpt lat="43.47309" lon="2.39002">
        <ele>433</ele>
        <time>2021-03-20T09:39:24Z</time>
      </trkpt>
      <trkpt lat="43.47309" lon="2.39007">
        <ele>432.79998779297</ele>
        <time>2021-03-20T09:39:28Z</time>
      </trkpt>
      <trkpt lat="43.47307" lon="2.39023">
        <ele>432.20001220703</ele>
        <time>2021-03-20T09:39:40Z</time>
      </trkpt>
      <trkpt lat="43.47304" lon="2.39033">
        <ele>432.20001220703</ele>
        <time>2021-03-20T09:39:48Z</time>
      </trkpt>
      <trkpt lat="43.47298" lon="2.39045">
        <ele>432</ele>
        <time>2021-03-20T09:39:56Z</time>
      </trkpt>
      <trkpt lat="43.47293" lon="2.39066">
        <ele>431.60000610352</ele>
        <time>2021-03-20T09:40:11Z</time>
      </trkpt>
      <trkpt lat="43.47292" lon="2.3907">
        <ele>431.60000610352</ele>
        <time>2021-03-20T09:40:14Z</time>
      </trkpt>
      <trkpt lat="43.47285" lon="2.39089">
        <ele>432.20001220703</ele>
        <time>2021-03-20T09:40:28Z</time>
      </trkpt>
      <trkpt lat="43.47281" lon="2.3911">
        <ele>433.79998779297</ele>
        <time>2021-03-20T09:40:42Z</time>
      </trkpt>
      <trkpt lat="43.47275" lon="2.39128">
        <ele>435</ele>
        <time>2021-03-20T09:40:56Z</time>
      </trkpt>
      <trkpt lat="43.47272" lon="2.39153">
        <ele>437.79998779297</ele>
        <time>2021-03-20T09:41:16Z</time>
      </trkpt>
      <trkpt lat="43.4727" lon="2.39173">
        <ele>440.39999389648</ele>
        <time>2021-03-20T09:41:31Z</time>
      </trkpt>
      <trkpt lat="43.47273" lon="2.39195">
        <ele>441.60000610352</ele>
        <time>2021-03-20T09:41:47Z</time>
      </trkpt>
      <trkpt lat="43.47274" lon="2.39204">
        <ele>441.79998779297</ele>
        <time>2021-03-20T09:41:53Z</time>
      </trkpt>
      <trkpt lat="43.47274" lon="2.39206">
        <ele>441.79998779297</ele>
        <time>2021-03-20T09:41:54Z</time>
      </trkpt>
      <trkpt lat="43.47274" lon="2.39212">
        <ele>442.20001220703</ele>
        <time>2021-03-20T09:41:58Z</time>
      </trkpt>
      <trkpt lat="43.47279" lon="2.39228">
        <ele>443.20001220703</ele>
        <time>2021-03-20T09:42:11Z</time>
      </trkpt>
      <trkpt lat="43.47281" lon="2.39246">
        <ele>444.60000610352</ele>
        <time>2021-03-20T09:42:26Z</time>
      </trkpt>
      <trkpt lat="43.47285" lon="2.3926">
        <ele>447.39999389648</ele>
        <time>2021-03-20T09:42:44Z</time>
      </trkpt>
      <trkpt lat="43.47289" lon="2.39271">
        <ele>448.60000610352</ele>
        <time>2021-03-20T09:42:55Z</time>
      </trkpt>
      <trkpt lat="43.47296" lon="2.39288">
        <ele>450.20001220703</ele>
        <time>2021-03-20T09:43:09Z</time>
      </trkpt>
      <trkpt lat="43.47295" lon="2.39303">
        <ele>452.60000610352</ele>
        <time>2021-03-20T09:43:26Z</time>
      </trkpt>
      <trkpt lat="43.47289" lon="2.39311">
        <ele>454</ele>
        <time>2021-03-20T09:43:42Z</time>
      </trkpt>
      <trkpt lat="43.47289" lon="2.39312">
        <ele>453.79998779297</ele>
        <time>2021-03-20T09:44:07Z</time>
      </trkpt>
      <trkpt lat="43.47287" lon="2.39314">
        <ele>453.79998779297</ele>
        <time>2021-03-20T09:44:29Z</time>
      </trkpt>
      <trkpt lat="43.47275" lon="2.39316">
        <ele>453.79998779297</ele>
        <time>2021-03-20T09:44:48Z</time>
      </trkpt>
      <trkpt lat="43.47277" lon="2.39329">
        <ele>453.79998779297</ele>
        <time>2021-03-20T09:45:08Z</time>
      </trkpt>
      <trkpt lat="43.4728" lon="2.3934">
        <ele>453.79998779297</ele>
        <time>2021-03-20T09:45:18Z</time>
      </trkpt>
      <trkpt lat="43.47283" lon="2.39344">
        <ele>449.39999389648</ele>
        <time>2021-03-20T09:45:22Z</time>
      </trkpt>
      <trkpt lat="43.47288" lon="2.39354">
        <ele>446.39999389648</ele>
        <time>2021-03-20T09:45:33Z</time>
      </trkpt>
      <trkpt lat="43.47293" lon="2.39373">
        <ele>443.60000610352</ele>
        <time>2021-03-20T09:45:53Z</time>
      </trkpt>
      <trkpt lat="43.47294" lon="2.39384">
        <ele>440.39999389648</ele>
        <time>2021-03-20T09:46:08Z</time>
      </trkpt>
      <trkpt lat="43.47282" lon="2.39376">
        <ele>438.20001220703</ele>
        <time>2021-03-20T09:46:23Z</time>
      </trkpt>
      <trkpt lat="43.47272" lon="2.39361">
        <ele>436</ele>
        <time>2021-03-20T09:46:41Z</time>
      </trkpt>
      <trkpt lat="43.47256" lon="2.39352">
        <ele>433.20001220703</ele>
        <time>2021-03-20T09:47:05Z</time>
      </trkpt>
      <trkpt lat="43.47242" lon="2.39343">
        <ele>431</ele>
        <time>2021-03-20T09:47:22Z</time>
      </trkpt>
      <trkpt lat="43.47233" lon="2.39341">
        <ele>428.79998779297</ele>
        <time>2021-03-20T09:47:40Z</time>
      </trkpt>
      <trkpt lat="43.47219" lon="2.39335">
        <ele>426.20001220703</ele>
        <time>2021-03-20T09:47:58Z</time>
      </trkpt>
      <trkpt lat="43.47206" lon="2.39335">
        <ele>423.20001220703</ele>
        <time>2021-03-20T09:48:17Z</time>
      </trkpt>
      <trkpt lat="43.472" lon="2.39338">
        <ele>420.20001220703</ele>
        <time>2021-03-20T09:48:33Z</time>
      </trkpt>
      <trkpt lat="43.47198" lon="2.39346">
        <ele>417.20001220703</ele>
        <time>2021-03-20T09:48:52Z</time>
      </trkpt>
      <trkpt lat="43.47197" lon="2.39351">
        <ele>416</ele>
        <time>2021-03-20T09:49:15Z</time>
      </trkpt>
      <trkpt lat="43.47197" lon="2.39351">
        <ele>416.20001220703</ele>
        <time>2021-03-20T09:49:39Z</time>
      </trkpt>
      <trkpt lat="43.47204" lon="2.3936">
        <ele>413.39999389648</ele>
        <time>2021-03-20T09:49:58Z</time>
      </trkpt>
      <trkpt lat="43.47204" lon="2.39372">
        <ele>410.79998779297</ele>
        <time>2021-03-20T09:50:16Z</time>
      </trkpt>
      <trkpt lat="43.47204" lon="2.39385">
        <ele>408</ele>
        <time>2021-03-20T09:50:35Z</time>
      </trkpt>
      <trkpt lat="43.47204" lon="2.39401">
        <ele>404.79998779297</ele>
        <time>2021-03-20T09:50:50Z</time>
      </trkpt>
      <trkpt lat="43.47208" lon="2.39404">
        <ele>404.39999389648</ele>
        <time>2021-03-20T09:50:54Z</time>
      </trkpt>
      <trkpt lat="43.47216" lon="2.39406">
        <ele>403.79998779297</ele>
        <time>2021-03-20T09:51:04Z</time>
      </trkpt>
      <trkpt lat="43.47225" lon="2.39416">
        <ele>403</ele>
        <time>2021-03-20T09:51:15Z</time>
      </trkpt>
      <trkpt lat="43.47235" lon="2.39417">
        <ele>402.79998779297</ele>
        <time>2021-03-20T09:51:29Z</time>
      </trkpt>
      <trkpt lat="43.47237" lon="2.39421">
        <ele>402.79998779297</ele>
        <time>2021-03-20T09:51:32Z</time>
      </trkpt>
      <trkpt lat="43.47238" lon="2.39422">
        <ele>402.79998779297</ele>
        <time>2021-03-20T09:51:33Z</time>
      </trkpt>
      <trkpt lat="43.47238" lon="2.39424">
        <ele>402.79998779297</ele>
        <time>2021-03-20T09:51:34Z</time>
      </trkpt>
      <trkpt lat="43.47239" lon="2.39434">
        <ele>402.20001220703</ele>
        <time>2021-03-20T09:51:40Z</time>
      </trkpt>
      <trkpt lat="43.47239" lon="2.39435">
        <ele>402.20001220703</ele>
        <time>2021-03-20T09:51:41Z</time>
      </trkpt>
      <trkpt lat="43.47241" lon="2.39452">
        <ele>403.20001220703</ele>
        <time>2021-03-20T09:51:53Z</time>
      </trkpt>
      <trkpt lat="43.47242" lon="2.39464">
        <ele>404.39999389648</ele>
        <time>2021-03-20T09:52:02Z</time>
      </trkpt>
      <trkpt lat="43.47242" lon="2.39466">
        <ele>404.39999389648</ele>
        <time>2021-03-20T09:52:03Z</time>
      </trkpt>
      <trkpt lat="43.47244" lon="2.39481">
        <ele>404.20001220703</ele>
        <time>2021-03-20T09:52:15Z</time>
      </trkpt>
      <trkpt lat="43.47245" lon="2.39482">
        <ele>404</ele>
        <time>2021-03-20T09:52:17Z</time>
      </trkpt>
      <trkpt lat="43.47246" lon="2.39483">
        <ele>404</ele>
        <time>2021-03-20T09:52:18Z</time>
      </trkpt>
      <trkpt lat="43.47249" lon="2.39498">
        <ele>403.20001220703</ele>
        <time>2021-03-20T09:52:33Z</time>
      </trkpt>
      <trkpt lat="43.47251" lon="2.39503">
        <ele>402.60000610352</ele>
        <time>2021-03-20T09:52:38Z</time>
      </trkpt>
      <trkpt lat="43.47252" lon="2.39504">
        <ele>402.60000610352</ele>
        <time>2021-03-20T09:52:39Z</time>
      </trkpt>
      <trkpt lat="43.4726" lon="2.3952">
        <ele>401.39999389648</ele>
        <time>2021-03-20T09:52:56Z</time>
      </trkpt>
      <trkpt lat="43.47264" lon="2.39523">
        <ele>401.39999389648</ele>
        <time>2021-03-20T09:53:02Z</time>
      </trkpt>
      <trkpt lat="43.47264" lon="2.39539">
        <ele>401</ele>
        <time>2021-03-20T09:53:17Z</time>
      </trkpt>
      <trkpt lat="43.47264" lon="2.39542">
        <ele>401</ele>
        <time>2021-03-20T09:53:19Z</time>
      </trkpt>
      <trkpt lat="43.47265" lon="2.39543">
        <ele>401.20001220703</ele>
        <time>2021-03-20T09:53:20Z</time>
      </trkpt>
      <trkpt lat="43.47264" lon="2.3955">
        <ele>401</ele>
        <time>2021-03-20T09:53:37Z</time>
      </trkpt>
      <trkpt lat="43.47265" lon="2.39553">
        <ele>401</ele>
        <time>2021-03-20T09:53:40Z</time>
      </trkpt>
      <trkpt lat="43.47266" lon="2.39555">
        <ele>401</ele>
        <time>2021-03-20T09:53:41Z</time>
      </trkpt>
      <trkpt lat="43.47277" lon="2.39571">
        <ele>400.39999389648</ele>
        <time>2021-03-20T09:53:57Z</time>
      </trkpt>
      <trkpt lat="43.47294" lon="2.39582">
        <ele>399.79998779297</ele>
        <time>2021-03-20T09:54:15Z</time>
      </trkpt>
      <trkpt lat="43.4731" lon="2.39587">
        <ele>399</ele>
        <time>2021-03-20T09:54:31Z</time>
      </trkpt>
      <trkpt lat="43.47317" lon="2.39591">
        <ele>398.79998779297</ele>
        <time>2021-03-20T09:54:39Z</time>
      </trkpt>
      <trkpt lat="43.47323" lon="2.39591">
        <ele>398.60000610352</ele>
        <time>2021-03-20T09:54:46Z</time>
      </trkpt>
      <trkpt lat="43.47325" lon="2.3959">
        <ele>398.60000610352</ele>
        <time>2021-03-20T09:54:47Z</time>
      </trkpt>
      <trkpt lat="43.47326" lon="2.3959">
        <ele>398.79998779297</ele>
        <time>2021-03-20T09:54:48Z</time>
      </trkpt>
      <trkpt lat="43.47334" lon="2.39582">
        <ele>398.79998779297</ele>
        <time>2021-03-20T09:55:00Z</time>
      </trkpt>
      <trkpt lat="43.47342" lon="2.3956">
        <ele>399</ele>
        <time>2021-03-20T09:55:19Z</time>
      </trkpt>
      <trkpt lat="43.47343" lon="2.39552">
        <ele>398.60000610352</ele>
        <time>2021-03-20T09:55:25Z</time>
      </trkpt>
      <trkpt lat="43.47349" lon="2.39531">
        <ele>398.39999389648</ele>
        <time>2021-03-20T09:55:41Z</time>
      </trkpt>
      <trkpt lat="43.47356" lon="2.39513">
        <ele>398</ele>
        <time>2021-03-20T09:55:56Z</time>
      </trkpt>
      <trkpt lat="43.47361" lon="2.39494">
        <ele>397.60000610352</ele>
        <time>2021-03-20T09:56:14Z</time>
      </trkpt>
      <trkpt lat="43.47362" lon="2.39494">
        <ele>397.60000610352</ele>
        <time>2021-03-20T09:56:15Z</time>
      </trkpt>
      <trkpt lat="43.47362" lon="2.39493">
        <ele>397.60000610352</ele>
        <time>2021-03-20T09:56:16Z</time>
      </trkpt>
      <trkpt lat="43.47363" lon="2.39491">
        <ele>397.60000610352</ele>
        <time>2021-03-20T09:56:17Z</time>
      </trkpt>
      <trkpt lat="43.47365" lon="2.39489">
        <ele>397.39999389648</ele>
        <time>2021-03-20T09:56:20Z</time>
      </trkpt>
      <trkpt lat="43.47368" lon="2.39487">
        <ele>397.39999389648</ele>
        <time>2021-03-20T09:56:24Z</time>
      </trkpt>
      <trkpt lat="43.47369" lon="2.39485">
        <ele>397.39999389648</ele>
        <time>2021-03-20T09:56:25Z</time>
      </trkpt>
      <trkpt lat="43.4737" lon="2.39484">
        <ele>397.39999389648</ele>
        <time>2021-03-20T09:56:26Z</time>
      </trkpt>
      <trkpt lat="43.47371" lon="2.39483">
        <ele>397.20001220703</ele>
        <time>2021-03-20T09:56:27Z</time>
      </trkpt>
      <trkpt lat="43.47371" lon="2.39482">
        <ele>397.20001220703</ele>
        <time>2021-03-20T09:56:28Z</time>
      </trkpt>
      <trkpt lat="43.47374" lon="2.39475">
        <ele>397.20001220703</ele>
        <time>2021-03-20T09:56:32Z</time>
      </trkpt>
      <trkpt lat="43.47373" lon="2.39469">
        <ele>397</ele>
        <time>2021-03-20T09:56:36Z</time>
      </trkpt>
      <trkpt lat="43.47371" lon="2.3946">
        <ele>397</ele>
        <time>2021-03-20T09:56:42Z</time>
      </trkpt>
      <trkpt lat="43.47372" lon="2.39458">
        <ele>397</ele>
        <time>2021-03-20T09:56:43Z</time>
      </trkpt>
      <trkpt lat="43.47373" lon="2.39457">
        <ele>397</ele>
        <time>2021-03-20T09:56:44Z</time>
      </trkpt>
      <trkpt lat="43.47373" lon="2.39455">
        <ele>397</ele>
        <time>2021-03-20T09:56:45Z</time>
      </trkpt>
      <trkpt lat="43.47374" lon="2.39454">
        <ele>397</ele>
        <time>2021-03-20T09:56:46Z</time>
      </trkpt>
      <trkpt lat="43.47374" lon="2.39452">
        <ele>397</ele>
        <time>2021-03-20T09:56:47Z</time>
      </trkpt>
      <trkpt lat="43.47376" lon="2.39445">
        <ele>397</ele>
        <time>2021-03-20T09:56:55Z</time>
      </trkpt>
      <trkpt lat="43.47377" lon="2.39443">
        <ele>397</ele>
        <time>2021-03-20T09:56:56Z</time>
      </trkpt>
      <trkpt lat="43.47379" lon="2.39441">
        <ele>397</ele>
        <time>2021-03-20T09:56:57Z</time>
      </trkpt>
      <trkpt lat="43.4738" lon="2.3944">
        <ele>397</ele>
        <time>2021-03-20T09:56:58Z</time>
      </trkpt>
      <trkpt lat="43.4738" lon="2.39439">
        <ele>397</ele>
        <time>2021-03-20T09:56:59Z</time>
      </trkpt>
      <trkpt lat="43.47384" lon="2.39435">
        <ele>396.79998779297</ele>
        <time>2021-03-20T09:57:03Z</time>
      </trkpt>
      <trkpt lat="43.47387" lon="2.3943">
        <ele>396.79998779297</ele>
        <time>2021-03-20T09:57:08Z</time>
      </trkpt>
      <trkpt lat="43.47388" lon="2.39428">
        <ele>396.60000610352</ele>
        <time>2021-03-20T09:57:09Z</time>
      </trkpt>
      <trkpt lat="43.47389" lon="2.39427">
        <ele>396.60000610352</ele>
        <time>2021-03-20T09:57:10Z</time>
      </trkpt>
      <trkpt lat="43.4739" lon="2.39426">
        <ele>396.60000610352</ele>
        <time>2021-03-20T09:57:11Z</time>
      </trkpt>
      <trkpt lat="43.47391" lon="2.39425">
        <ele>396.60000610352</ele>
        <time>2021-03-20T09:57:12Z</time>
      </trkpt>
      <trkpt lat="43.47405" lon="2.39419">
        <ele>396.20001220703</ele>
        <time>2021-03-20T09:57:25Z</time>
      </trkpt>
      <trkpt lat="43.47426" lon="2.39406">
        <ele>395.79998779297</ele>
        <time>2021-03-20T09:57:44Z</time>
      </trkpt>
      <trkpt lat="43.47434" lon="2.39401">
        <ele>395.79998779297</ele>
        <time>2021-03-20T09:57:52Z</time>
      </trkpt>
      <trkpt lat="43.47439" lon="2.39399">
        <ele>395.60000610352</ele>
        <time>2021-03-20T09:57:57Z</time>
      </trkpt>
      <trkpt lat="43.47447" lon="2.39382">
        <ele>395.79998779297</ele>
        <time>2021-03-20T09:58:09Z</time>
      </trkpt>
      <trkpt lat="43.47458" lon="2.39349">
        <ele>395.39999389648</ele>
        <time>2021-03-20T09:58:28Z</time>
      </trkpt>
      <trkpt lat="43.47466" lon="2.39318">
        <ele>396.39999389648</ele>
        <time>2021-03-20T09:58:49Z</time>
      </trkpt>
      <trkpt lat="43.47463" lon="2.39314">
        <ele>397.60000610352</ele>
        <time>2021-03-20T09:59:10Z</time>
      </trkpt>
      <trkpt lat="43.47462" lon="2.39301">
        <ele>399.20001220703</ele>
        <time>2021-03-20T09:59:33Z</time>
      </trkpt>
      <trkpt lat="43.4746" lon="2.39282">
        <ele>400</ele>
        <time>2021-03-20T09:59:53Z</time>
      </trkpt>
      <trkpt lat="43.47458" lon="2.39277">
        <ele>401.39999389648</ele>
        <time>2021-03-20T10:00:09Z</time>
      </trkpt>
      <trkpt lat="43.47457" lon="2.39261">
        <ele>402.39999389648</ele>
        <time>2021-03-20T10:00:28Z</time>
      </trkpt>
      <trkpt lat="43.47452" lon="2.39245">
        <ele>403</ele>
        <time>2021-03-20T10:00:53Z</time>
      </trkpt>
      <trkpt lat="43.47446" lon="2.39224">
        <ele>405</ele>
        <time>2021-03-20T10:01:09Z</time>
      </trkpt>
      <trkpt lat="43.4744" lon="2.39214">
        <ele>406.39999389648</ele>
        <time>2021-03-20T10:01:22Z</time>
      </trkpt>
      <trkpt lat="43.47429" lon="2.392">
        <ele>407.60000610352</ele>
        <time>2021-03-20T10:01:40Z</time>
      </trkpt>
      <trkpt lat="43.47416" lon="2.39185">
        <ele>409.60000610352</ele>
        <time>2021-03-20T10:01:59Z</time>
      </trkpt>
      <trkpt lat="43.47423" lon="2.39179">
        <ele>410.60000610352</ele>
        <time>2021-03-20T10:02:20Z</time>
      </trkpt>
      <trkpt lat="43.47437" lon="2.39194">
        <ele>412.20001220703</ele>
        <time>2021-03-20T10:02:41Z</time>
      </trkpt>
      <trkpt lat="43.4745" lon="2.39203">
        <ele>413.79998779297</ele>
        <time>2021-03-20T10:03:01Z</time>
      </trkpt>
      <trkpt lat="43.47458" lon="2.39216">
        <ele>414.79998779297</ele>
        <time>2021-03-20T10:03:20Z</time>
      </trkpt>
      <trkpt lat="43.47468" lon="2.3923">
        <ele>416.39999389648</ele>
        <time>2021-03-20T10:03:37Z</time>
      </trkpt>
      <trkpt lat="43.4748" lon="2.39244">
        <ele>418</ele>
        <time>2021-03-20T10:03:57Z</time>
      </trkpt>
      <trkpt lat="43.47489" lon="2.39261">
        <ele>419</ele>
        <time>2021-03-20T10:04:13Z</time>
      </trkpt>
      <trkpt lat="43.47494" lon="2.39274">
        <ele>419.60000610352</ele>
        <time>2021-03-20T10:04:30Z</time>
      </trkpt>
      <trkpt lat="43.47499" lon="2.39297">
        <ele>420.39999389648</ele>
        <time>2021-03-20T10:04:47Z</time>
      </trkpt>
      <trkpt lat="43.47503" lon="2.393">
        <ele>421.79998779297</ele>
        <time>2021-03-20T10:05:04Z</time>
      </trkpt>
      <trkpt lat="43.47498" lon="2.39275">
        <ele>423</ele>
        <time>2021-03-20T10:05:23Z</time>
      </trkpt>
      <trkpt lat="43.47492" lon="2.39252">
        <ele>424.20001220703</ele>
        <time>2021-03-20T10:05:41Z</time>
      </trkpt>
      <trkpt lat="43.47483" lon="2.39232">
        <ele>425.20001220703</ele>
        <time>2021-03-20T10:05:58Z</time>
      </trkpt>
      <trkpt lat="43.47475" lon="2.39215">
        <ele>426.39999389648</ele>
        <time>2021-03-20T10:06:15Z</time>
      </trkpt>
      <trkpt lat="43.47468" lon="2.392">
        <ele>427</ele>
        <time>2021-03-20T10:06:29Z</time>
      </trkpt>
      <trkpt lat="43.47467" lon="2.39197">
        <ele>427</ele>
        <time>2021-03-20T10:06:32Z</time>
      </trkpt>
      <trkpt lat="43.47458" lon="2.39186">
        <ele>428</ele>
        <time>2021-03-20T10:06:45Z</time>
      </trkpt>
      <trkpt lat="43.47448" lon="2.39171">
        <ele>428.60000610352</ele>
        <time>2021-03-20T10:07:02Z</time>
      </trkpt>
      <trkpt lat="43.47444" lon="2.3915">
        <ele>429.79998779297</ele>
        <time>2021-03-20T10:07:21Z</time>
      </trkpt>
      <trkpt lat="43.47451" lon="2.39145">
        <ele>431.20001220703</ele>
        <time>2021-03-20T10:07:36Z</time>
      </trkpt>
      <trkpt lat="43.47456" lon="2.39161">
        <ele>432.20001220703</ele>
        <time>2021-03-20T10:07:53Z</time>
      </trkpt>
      <trkpt lat="43.47462" lon="2.39173">
        <ele>433.39999389648</ele>
        <time>2021-03-20T10:08:10Z</time>
      </trkpt>
      <trkpt lat="43.47471" lon="2.39181">
        <ele>434.39999389648</ele>
        <time>2021-03-20T10:08:25Z</time>
      </trkpt>
      <trkpt lat="43.47483" lon="2.39194">
        <ele>435.39999389648</ele>
        <time>2021-03-20T10:08:44Z</time>
      </trkpt>
      <trkpt lat="43.47491" lon="2.39202">
        <ele>436.39999389648</ele>
        <time>2021-03-20T10:08:58Z</time>
      </trkpt>
      <trkpt lat="43.475" lon="2.39213">
        <ele>437.79998779297</ele>
        <time>2021-03-20T10:09:14Z</time>
      </trkpt>
      <trkpt lat="43.47511" lon="2.39224">
        <ele>439.20001220703</ele>
        <time>2021-03-20T10:09:33Z</time>
      </trkpt>
      <trkpt lat="43.47518" lon="2.39238">
        <ele>440.20001220703</ele>
        <time>2021-03-20T10:09:52Z</time>
      </trkpt>
      <trkpt lat="43.47523" lon="2.39251">
        <ele>441</ele>
        <time>2021-03-20T10:10:14Z</time>
      </trkpt>
      <trkpt lat="43.4753" lon="2.39267">
        <ele>442.20001220703</ele>
        <time>2021-03-20T10:10:31Z</time>
      </trkpt>
      <trkpt lat="43.47537" lon="2.39284">
        <ele>443.60000610352</ele>
        <time>2021-03-20T10:10:47Z</time>
      </trkpt>
      <trkpt lat="43.47545" lon="2.39305">
        <ele>445.79998779297</ele>
        <time>2021-03-20T10:11:06Z</time>
      </trkpt>
      <trkpt lat="43.47544" lon="2.39295">
        <ele>446.79998779297</ele>
        <time>2021-03-20T10:11:22Z</time>
      </trkpt>
      <trkpt lat="43.47539" lon="2.39275">
        <ele>448.60000610352</ele>
        <time>2021-03-20T10:11:43Z</time>
      </trkpt>
      <trkpt lat="43.47534" lon="2.39255">
        <ele>450</ele>
        <time>2021-03-20T10:12:00Z</time>
      </trkpt>
      <trkpt lat="43.47527" lon="2.39233">
        <ele>452.60000610352</ele>
        <time>2021-03-20T10:12:22Z</time>
      </trkpt>
      <trkpt lat="43.47517" lon="2.39216">
        <ele>454.39999389648</ele>
        <time>2021-03-20T10:12:42Z</time>
      </trkpt>
      <trkpt lat="43.47523" lon="2.39215">
        <ele>455.39999389648</ele>
        <time>2021-03-20T10:12:55Z</time>
      </trkpt>
      <trkpt lat="43.47536" lon="2.39232">
        <ele>456.39999389648</ele>
        <time>2021-03-20T10:13:16Z</time>
      </trkpt>
      <trkpt lat="43.47538" lon="2.39234">
        <ele>456.60000610352</ele>
        <time>2021-03-20T10:13:19Z</time>
      </trkpt>
      <trkpt lat="43.47539" lon="2.39238">
        <ele>456.60000610352</ele>
        <time>2021-03-20T10:13:22Z</time>
      </trkpt>
      <trkpt lat="43.47545" lon="2.39252">
        <ele>457.39999389648</ele>
        <time>2021-03-20T10:13:35Z</time>
      </trkpt>
      <trkpt lat="43.47552" lon="2.39275">
        <ele>458.60000610352</ele>
        <time>2021-03-20T10:13:55Z</time>
      </trkpt>
      <trkpt lat="43.4756" lon="2.39284">
        <ele>459.20001220703</ele>
        <time>2021-03-20T10:14:05Z</time>
      </trkpt>
      <trkpt lat="43.47563" lon="2.39302">
        <ele>460.20001220703</ele>
        <time>2021-03-20T10:14:18Z</time>
      </trkpt>
      <trkpt lat="43.47564" lon="2.39297">
        <ele>462</ele>
        <time>2021-03-20T10:14:35Z</time>
      </trkpt>
      <trkpt lat="43.47558" lon="2.39279">
        <ele>463</ele>
        <time>2021-03-20T10:14:56Z</time>
      </trkpt>
      <trkpt lat="43.47553" lon="2.39255">
        <ele>465</ele>
        <time>2021-03-20T10:15:21Z</time>
      </trkpt>
      <trkpt lat="43.47549" lon="2.39248">
        <ele>465.60000610352</ele>
        <time>2021-03-20T10:15:40Z</time>
      </trkpt>
      <trkpt lat="43.47548" lon="2.3924">
        <ele>467.20001220703</ele>
        <time>2021-03-20T10:16:02Z</time>
      </trkpt>
      <trkpt lat="43.47545" lon="2.39235">
        <ele>467.20001220703</ele>
        <time>2021-03-20T10:16:27Z</time>
      </trkpt>
      <trkpt lat="43.47555" lon="2.39236">
        <ele>468.79998779297</ele>
        <time>2021-03-20T10:16:45Z</time>
      </trkpt>
      <trkpt lat="43.4756" lon="2.39258">
        <ele>470.20001220703</ele>
        <time>2021-03-20T10:17:04Z</time>
      </trkpt>
      <trkpt lat="43.47566" lon="2.39272">
        <ele>471.20001220703</ele>
        <time>2021-03-20T10:17:16Z</time>
      </trkpt>
      <trkpt lat="43.47571" lon="2.39288">
        <ele>472.39999389648</ele>
        <time>2021-03-20T10:17:29Z</time>
      </trkpt>
      <trkpt lat="43.47575" lon="2.39302">
        <ele>473.60000610352</ele>
        <time>2021-03-20T10:17:41Z</time>
      </trkpt>
      <trkpt lat="43.47579" lon="2.39302">
        <ele>475.60000610352</ele>
        <time>2021-03-20T10:17:59Z</time>
      </trkpt>
      <trkpt lat="43.47576" lon="2.39283">
        <ele>476.79998779297</ele>
        <time>2021-03-20T10:18:15Z</time>
      </trkpt>
      <trkpt lat="43.47572" lon="2.39266">
        <ele>478.39999389648</ele>
        <time>2021-03-20T10:18:31Z</time>
      </trkpt>
      <trkpt lat="43.47568" lon="2.39249">
        <ele>479.39999389648</ele>
        <time>2021-03-20T10:18:43Z</time>
      </trkpt>
      <trkpt lat="43.47565" lon="2.39229">
        <ele>480.60000610352</ele>
        <time>2021-03-20T10:18:59Z</time>
      </trkpt>
      <trkpt lat="43.4756" lon="2.3921">
        <ele>482.39999389648</ele>
        <time>2021-03-20T10:19:15Z</time>
      </trkpt>
      <trkpt lat="43.47553" lon="2.3919">
        <ele>484.20001220703</ele>
        <time>2021-03-20T10:19:33Z</time>
      </trkpt>
      <trkpt lat="43.4755" lon="2.39172">
        <ele>486.60000610352</ele>
        <time>2021-03-20T10:19:51Z</time>
      </trkpt>
      <trkpt lat="43.47553" lon="2.39162">
        <ele>487.39999389648</ele>
        <time>2021-03-20T10:20:03Z</time>
      </trkpt>
      <trkpt lat="43.47553" lon="2.39161">
        <ele>487.20001220703</ele>
        <time>2021-03-20T10:20:23Z</time>
      </trkpt>
      <trkpt lat="43.47555" lon="2.39173">
        <ele>487.39999389648</ele>
        <time>2021-03-20T10:20:41Z</time>
      </trkpt>
      <trkpt lat="43.47561" lon="2.39189">
        <ele>488.39999389648</ele>
        <time>2021-03-20T10:20:57Z</time>
      </trkpt>
      <trkpt lat="43.47572" lon="2.39204">
        <ele>489.79998779297</ele>
        <time>2021-03-20T10:21:16Z</time>
      </trkpt>
      <trkpt lat="43.4758" lon="2.39214">
        <ele>491.39999389648</ele>
        <time>2021-03-20T10:21:36Z</time>
      </trkpt>
      <trkpt lat="43.47586" lon="2.3923">
        <ele>492.39999389648</ele>
        <time>2021-03-20T10:21:54Z</time>
      </trkpt>
      <trkpt lat="43.47591" lon="2.39243">
        <ele>493.20001220703</ele>
        <time>2021-03-20T10:22:08Z</time>
      </trkpt>
      <trkpt lat="43.47598" lon="2.39257">
        <ele>494</ele>
        <time>2021-03-20T10:22:21Z</time>
      </trkpt>
      <trkpt lat="43.47605" lon="2.39275">
        <ele>495</ele>
        <time>2021-03-20T10:22:36Z</time>
      </trkpt>
      <trkpt lat="43.47613" lon="2.39301">
        <ele>496.20001220703</ele>
        <time>2021-03-20T10:22:55Z</time>
      </trkpt>
      <trkpt lat="43.47624" lon="2.39319">
        <ele>498.20001220703</ele>
        <time>2021-03-20T10:23:14Z</time>
      </trkpt>
      <trkpt lat="43.47627" lon="2.39333">
        <ele>499.20001220703</ele>
        <time>2021-03-20T10:23:34Z</time>
      </trkpt>
      <trkpt lat="43.47622" lon="2.39326">
        <ele>499</ele>
        <time>2021-03-20T10:23:55Z</time>
      </trkpt>
      <trkpt lat="43.47622" lon="2.39331">
        <ele>498.60000610352</ele>
        <time>2021-03-20T10:24:20Z</time>
      </trkpt>
      <trkpt lat="43.47623" lon="2.39332">
        <ele>498.60000610352</ele>
        <time>2021-03-20T10:24:44Z</time>
      </trkpt>
      <trkpt lat="43.47618" lon="2.39336">
        <ele>498.60000610352</ele>
        <time>2021-03-20T10:25:10Z</time>
      </trkpt>
      <trkpt lat="43.47622" lon="2.39334">
        <ele>498.60000610352</ele>
        <time>2021-03-20T10:25:43Z</time>
      </trkpt>
      <trkpt lat="43.47623" lon="2.39335">
        <ele>498.60000610352</ele>
        <time>2021-03-20T10:26:09Z</time>
      </trkpt>
      <trkpt lat="43.47623" lon="2.39335">
        <ele>498.60000610352</ele>
        <time>2021-03-20T10:26:32Z</time>
      </trkpt>
      <trkpt lat="43.47622" lon="2.39338">
        <ele>498.60000610352</ele>
        <time>2021-03-20T10:27:01Z</time>
      </trkpt>
      <trkpt lat="43.47621" lon="2.39339">
        <ele>498.60000610352</ele>
        <time>2021-03-20T10:27:28Z</time>
      </trkpt>
      <trkpt lat="43.47621" lon="2.39339">
        <ele>498.60000610352</ele>
        <time>2021-03-20T10:27:29Z</time>
      </trkpt>
      <trkpt lat="43.47619" lon="2.3934">
        <ele>498.39999389648</ele>
        <time>2021-03-20T10:28:21Z</time>
      </trkpt>
      <trkpt lat="43.47622" lon="2.39342">
        <ele>498.39999389648</ele>
        <time>2021-03-20T10:28:45Z</time>
      </trkpt>
      <trkpt lat="43.47622" lon="2.3934">
        <ele>498.39999389648</ele>
        <time>2021-03-20T10:28:58Z</time>
      </trkpt>
      <trkpt lat="43.47618" lon="2.39333">
        <ele>497.79998779297</ele>
        <time>2021-03-20T10:29:24Z</time>
      </trkpt>
      <trkpt lat="43.47616" lon="2.39335">
        <ele>497.79998779297</ele>
        <time>2021-03-20T10:29:47Z</time>
      </trkpt>
      <trkpt lat="43.47616" lon="2.39331">
        <ele>498</ele>
        <time>2021-03-20T10:30:14Z</time>
      </trkpt>
      <trkpt lat="43.47615" lon="2.39335">
        <ele>498</ele>
        <time>2021-03-20T10:30:39Z</time>
      </trkpt>
      <trkpt lat="43.47612" lon="2.39333">
        <ele>498</ele>
        <time>2021-03-20T10:30:57Z</time>
      </trkpt>
      <trkpt lat="43.47611" lon="2.39334">
        <ele>498</ele>
        <time>2021-03-20T10:31:06Z</time>
      </trkpt>
      <trkpt lat="43.4761" lon="2.39332">
        <ele>498</ele>
        <time>2021-03-20T10:31:38Z</time>
      </trkpt>
      <trkpt lat="43.47611" lon="2.39333">
        <ele>498</ele>
        <time>2021-03-20T10:32:04Z</time>
      </trkpt>
      <trkpt lat="43.47613" lon="2.39334">
        <ele>498</ele>
        <time>2021-03-20T10:32:23Z</time>
      </trkpt>
      <trkpt lat="43.47615" lon="2.39334">
        <ele>498</ele>
        <time>2021-03-20T10:32:34Z</time>
      </trkpt>
      <trkpt lat="43.47616" lon="2.39334">
        <ele>498</ele>
        <time>2021-03-20T10:32:56Z</time>
      </trkpt>
      <trkpt lat="43.47618" lon="2.39335">
        <ele>498</ele>
        <time>2021-03-20T10:33:27Z</time>
      </trkpt>
      <trkpt lat="43.47618" lon="2.39337">
        <ele>498</ele>
        <time>2021-03-20T10:33:57Z</time>
      </trkpt>
      <trkpt lat="43.47619" lon="2.39338">
        <ele>498</ele>
        <time>2021-03-20T10:34:15Z</time>
      </trkpt>
      <trkpt lat="43.47616" lon="2.3934">
        <ele>498</ele>
        <time>2021-03-20T10:34:38Z</time>
      </trkpt>
      <trkpt lat="43.47614" lon="2.39344">
        <ele>498</ele>
        <time>2021-03-20T10:35:06Z</time>
      </trkpt>
      <trkpt lat="43.47615" lon="2.39347">
        <ele>498</ele>
        <time>2021-03-20T10:35:27Z</time>
      </trkpt>
      <trkpt lat="43.47618" lon="2.39363">
        <ele>498</ele>
        <time>2021-03-20T10:35:47Z</time>
      </trkpt>
      <trkpt lat="43.47612" lon="2.39392">
        <ele>498</ele>
        <time>2021-03-20T10:36:09Z</time>
      </trkpt>
      <trkpt lat="43.47611" lon="2.39397">
        <ele>502.60000610352</ele>
        <time>2021-03-20T10:36:13Z</time>
      </trkpt>
      <trkpt lat="43.47611" lon="2.39398">
        <ele>502.79998779297</ele>
        <time>2021-03-20T10:36:14Z</time>
      </trkpt>
      <trkpt lat="43.4761" lon="2.39415">
        <ele>504</ele>
        <time>2021-03-20T10:36:33Z</time>
      </trkpt>
      <trkpt lat="43.47607" lon="2.39435">
        <ele>506</ele>
        <time>2021-03-20T10:36:56Z</time>
      </trkpt>
      <trkpt lat="43.47601" lon="2.39456">
        <ele>507.79998779297</ele>
        <time>2021-03-20T10:37:18Z</time>
      </trkpt>
      <trkpt lat="43.47599" lon="2.39473">
        <ele>510</ele>
        <time>2021-03-20T10:37:38Z</time>
      </trkpt>
      <trkpt lat="43.47597" lon="2.39483">
        <ele>511</ele>
        <time>2021-03-20T10:37:51Z</time>
      </trkpt>
      <trkpt lat="43.476" lon="2.39485">
        <ele>512.40002441406</ele>
        <time>2021-03-20T10:38:07Z</time>
      </trkpt>
      <trkpt lat="43.47602" lon="2.39465">
        <ele>513.20001220703</ele>
        <time>2021-03-20T10:38:24Z</time>
      </trkpt>
      <trkpt lat="43.4761" lon="2.39447">
        <ele>514.40002441406</ele>
        <time>2021-03-20T10:38:43Z</time>
      </trkpt>
      <trkpt lat="43.47619" lon="2.39435">
        <ele>515.40002441406</ele>
        <time>2021-03-20T10:38:59Z</time>
      </trkpt>
      <trkpt lat="43.47625" lon="2.39416">
        <ele>516.79998779297</ele>
        <time>2021-03-20T10:39:16Z</time>
      </trkpt>
      <trkpt lat="43.47631" lon="2.39396">
        <ele>517.79998779297</ele>
        <time>2021-03-20T10:39:32Z</time>
      </trkpt>
      <trkpt lat="43.47632" lon="2.39394">
        <ele>518</ele>
        <time>2021-03-20T10:39:33Z</time>
      </trkpt>
      <trkpt lat="43.47639" lon="2.39376">
        <ele>519</ele>
        <time>2021-03-20T10:39:50Z</time>
      </trkpt>
      <trkpt lat="43.47644" lon="2.39362">
        <ele>519.79998779297</ele>
        <time>2021-03-20T10:40:03Z</time>
      </trkpt>
      <trkpt lat="43.47644" lon="2.39375">
        <ele>522.20001220703</ele>
        <time>2021-03-20T10:40:22Z</time>
      </trkpt>
      <trkpt lat="43.47642" lon="2.39398">
        <ele>523.79998779297</ele>
        <time>2021-03-20T10:40:43Z</time>
      </trkpt>
      <trkpt lat="43.47637" lon="2.39422">
        <ele>525.59997558594</ele>
        <time>2021-03-20T10:41:03Z</time>
      </trkpt>
      <trkpt lat="43.47631" lon="2.39446">
        <ele>527.20001220703</ele>
        <time>2021-03-20T10:41:25Z</time>
      </trkpt>
      <trkpt lat="43.47624" lon="2.39472">
        <ele>529.20001220703</ele>
        <time>2021-03-20T10:41:47Z</time>
      </trkpt>
      <trkpt lat="43.47618" lon="2.39484">
        <ele>530.40002441406</ele>
        <time>2021-03-20T10:42:08Z</time>
      </trkpt>
      <trkpt lat="43.47603" lon="2.39472">
        <ele>529.40002441406</ele>
        <time>2021-03-20T10:44:21Z</time>
      </trkpt>
      <trkpt lat="43.4762" lon="2.39482">
        <ele>529.40002441406</ele>
        <time>2021-03-20T10:44:27Z</time>
      </trkpt>
      <trkpt lat="43.47615" lon="2.39481">
        <ele>527</ele>
        <time>2021-03-20T10:44:46Z</time>
      </trkpt>
      <trkpt lat="43.47615" lon="2.39482">
        <ele>526.20001220703</ele>
        <time>2021-03-20T10:45:04Z</time>
      </trkpt>
      <trkpt lat="43.47615" lon="2.39484">
        <ele>526.20001220703</ele>
        <time>2021-03-20T10:45:25Z</time>
      </trkpt>
      <trkpt lat="43.47619" lon="2.39484">
        <ele>526.20001220703</ele>
        <time>2021-03-20T10:45:48Z</time>
      </trkpt>
      <trkpt lat="43.47618" lon="2.39485">
        <ele>526.20001220703</ele>
        <time>2021-03-20T10:46:07Z</time>
      </trkpt>
      <trkpt lat="43.47617" lon="2.39497">
        <ele>526.20001220703</ele>
        <time>2021-03-20T10:46:28Z</time>
      </trkpt>
      <trkpt lat="43.47618" lon="2.39521">
        <ele>526.20001220703</ele>
        <time>2021-03-20T10:46:45Z</time>
      </trkpt>
      <trkpt lat="43.47611" lon="2.39543">
        <ele>526.20001220703</ele>
        <time>2021-03-20T10:47:03Z</time>
      </trkpt>
      <trkpt lat="43.47611" lon="2.39543">
        <ele>531.59997558594</ele>
        <time>2021-03-20T10:47:05Z</time>
      </trkpt>
      <trkpt lat="43.4761" lon="2.39544">
        <ele>531.59997558594</ele>
        <time>2021-03-20T10:47:06Z</time>
      </trkpt>
      <trkpt lat="43.47593" lon="2.3958">
        <ele>533.20001220703</ele>
        <time>2021-03-20T10:47:27Z</time>
      </trkpt>
      <trkpt lat="43.47579" lon="2.39602">
        <ele>535</ele>
        <time>2021-03-20T10:47:46Z</time>
      </trkpt>
      <trkpt lat="43.4757" lon="2.39624">
        <ele>537.79998779297</ele>
        <time>2021-03-20T10:48:06Z</time>
      </trkpt>
      <trkpt lat="43.47559" lon="2.39647">
        <ele>540.79998779297</ele>
        <time>2021-03-20T10:48:24Z</time>
      </trkpt>
      <trkpt lat="43.47549" lon="2.39675">
        <ele>542.40002441406</ele>
        <time>2021-03-20T10:48:42Z</time>
      </trkpt>
      <trkpt lat="43.47542" lon="2.397">
        <ele>544.59997558594</ele>
        <time>2021-03-20T10:49:03Z</time>
      </trkpt>
      <trkpt lat="43.4753" lon="2.39723">
        <ele>547</ele>
        <time>2021-03-20T10:49:24Z</time>
      </trkpt>
      <trkpt lat="43.47522" lon="2.39747">
        <ele>549.20001220703</ele>
        <time>2021-03-20T10:49:45Z</time>
      </trkpt>
      <trkpt lat="43.47516" lon="2.39775">
        <ele>551.20001220703</ele>
        <time>2021-03-20T10:50:05Z</time>
      </trkpt>
      <trkpt lat="43.47515" lon="2.39802">
        <ele>553.40002441406</ele>
        <time>2021-03-20T10:50:23Z</time>
      </trkpt>
      <trkpt lat="43.47512" lon="2.39833">
        <ele>555.20001220703</ele>
        <time>2021-03-20T10:50:43Z</time>
      </trkpt>
      <trkpt lat="43.47518" lon="2.39853">
        <ele>557.20001220703</ele>
        <time>2021-03-20T10:51:03Z</time>
      </trkpt>
      <trkpt lat="43.47527" lon="2.39836">
        <ele>559.20001220703</ele>
        <time>2021-03-20T10:51:23Z</time>
      </trkpt>
      <trkpt lat="43.47532" lon="2.39822">
        <ele>560.59997558594</ele>
        <time>2021-03-20T10:51:40Z</time>
      </trkpt>
      <trkpt lat="43.47535" lon="2.39798">
        <ele>562.40002441406</ele>
        <time>2021-03-20T10:52:02Z</time>
      </trkpt>
      <trkpt lat="43.47542" lon="2.39788">
        <ele>564.20001220703</ele>
        <time>2021-03-20T10:52:21Z</time>
      </trkpt>
      <trkpt lat="43.47547" lon="2.39801">
        <ele>565.79998779297</ele>
        <time>2021-03-20T10:52:39Z</time>
      </trkpt>
      <trkpt lat="43.47552" lon="2.39808">
        <ele>566.59997558594</ele>
        <time>2021-03-20T10:52:48Z</time>
      </trkpt>
      <trkpt lat="43.47556" lon="2.39823">
        <ele>567.40002441406</ele>
        <time>2021-03-20T10:53:01Z</time>
      </trkpt>
      <trkpt lat="43.47563" lon="2.3984">
        <ele>568.20001220703</ele>
        <time>2021-03-20T10:53:15Z</time>
      </trkpt>
      <trkpt lat="43.47573" lon="2.39868">
        <ele>569.40002441406</ele>
        <time>2021-03-20T10:53:33Z</time>
      </trkpt>
      <trkpt lat="43.47573" lon="2.3987">
        <ele>569.59997558594</ele>
        <time>2021-03-20T10:53:34Z</time>
      </trkpt>
      <trkpt lat="43.47574" lon="2.39872">
        <ele>569.59997558594</ele>
        <time>2021-03-20T10:53:35Z</time>
      </trkpt>
      <trkpt lat="43.47575" lon="2.39874">
        <ele>569.59997558594</ele>
        <time>2021-03-20T10:53:36Z</time>
      </trkpt>
      <trkpt lat="43.47575" lon="2.39876">
        <ele>569.79998779297</ele>
        <time>2021-03-20T10:53:37Z</time>
      </trkpt>
      <trkpt lat="43.47581" lon="2.39901">
        <ele>570.20001220703</ele>
        <time>2021-03-20T10:53:51Z</time>
      </trkpt>
      <trkpt lat="43.47585" lon="2.39924">
        <ele>570.59997558594</ele>
        <time>2021-03-20T10:54:07Z</time>
      </trkpt>
      <trkpt lat="43.47585" lon="2.3993">
        <ele>570.59997558594</ele>
        <time>2021-03-20T10:54:10Z</time>
      </trkpt>
      <trkpt lat="43.47589" lon="2.39951">
        <ele>571.20001220703</ele>
        <time>2021-03-20T10:54:23Z</time>
      </trkpt>
      <trkpt lat="43.47588" lon="2.3997">
        <ele>572.20001220703</ele>
        <time>2021-03-20T10:54:38Z</time>
      </trkpt>
      <trkpt lat="43.47587" lon="2.39975">
        <ele>572.20001220703</ele>
        <time>2021-03-20T10:55:00Z</time>
      </trkpt>
      <trkpt lat="43.47583" lon="2.39988">
        <ele>572.20001220703</ele>
        <time>2021-03-20T10:55:13Z</time>
      </trkpt>
      <trkpt lat="43.47578" lon="2.40011">
        <ele>572.59997558594</ele>
        <time>2021-03-20T10:55:29Z</time>
      </trkpt>
      <trkpt lat="43.47574" lon="2.40036">
        <ele>573.59997558594</ele>
        <time>2021-03-20T10:55:46Z</time>
      </trkpt>
      <trkpt lat="43.47568" lon="2.40059">
        <ele>574</ele>
        <time>2021-03-20T10:56:02Z</time>
      </trkpt>
      <trkpt lat="43.47563" lon="2.40081">
        <ele>574.79998779297</ele>
        <time>2021-03-20T10:56:16Z</time>
      </trkpt>
      <trkpt lat="43.4756" lon="2.401">
        <ele>575.79998779297</ele>
        <time>2021-03-20T10:56:32Z</time>
      </trkpt>
      <trkpt lat="43.47559" lon="2.40115">
        <ele>576.59997558594</ele>
        <time>2021-03-20T10:56:42Z</time>
      </trkpt>
      <trkpt lat="43.47567" lon="2.40131">
        <ele>578.79998779297</ele>
        <time>2021-03-20T10:56:58Z</time>
      </trkpt>
      <trkpt lat="43.47578" lon="2.40134">
        <ele>580.40002441406</ele>
        <time>2021-03-20T10:57:14Z</time>
      </trkpt>
      <trkpt lat="43.47592" lon="2.4013">
        <ele>581.20001220703</ele>
        <time>2021-03-20T10:57:32Z</time>
      </trkpt>
      <trkpt lat="43.47602" lon="2.40106">
        <ele>580.20001220703</ele>
        <time>2021-03-20T10:57:52Z</time>
      </trkpt>
      <trkpt lat="43.47605" lon="2.40104">
        <ele>579.59997558594</ele>
        <time>2021-03-20T10:58:13Z</time>
      </trkpt>
      <trkpt lat="43.47606" lon="2.40105">
        <ele>579.40002441406</ele>
        <time>2021-03-20T10:58:39Z</time>
      </trkpt>
      <trkpt lat="43.47603" lon="2.40084">
        <ele>578.59997558594</ele>
        <time>2021-03-20T10:58:55Z</time>
      </trkpt>
      <trkpt lat="43.47601" lon="2.40066">
        <ele>577.79998779297</ele>
        <time>2021-03-20T10:59:07Z</time>
      </trkpt>
      <trkpt lat="43.47604" lon="2.40043">
        <ele>577.79998779297</ele>
        <time>2021-03-20T10:59:23Z</time>
      </trkpt>
      <trkpt lat="43.47608" lon="2.40032">
        <ele>577.79998779297</ele>
        <time>2021-03-20T10:59:30Z</time>
      </trkpt>
      <trkpt lat="43.47609" lon="2.40024">
        <ele>577.59997558594</ele>
        <time>2021-03-20T10:59:35Z</time>
      </trkpt>
      <trkpt lat="43.47621" lon="2.39993">
        <ele>578</ele>
        <time>2021-03-20T10:59:54Z</time>
      </trkpt>
      <trkpt lat="43.47623" lon="2.39983">
        <ele>578.20001220703</ele>
        <time>2021-03-20T11:00:04Z</time>
      </trkpt>
      <trkpt lat="43.47623" lon="2.39982">
        <ele>578.20001220703</ele>
        <time>2021-03-20T11:00:05Z</time>
      </trkpt>
      <trkpt lat="43.47624" lon="2.3998">
        <ele>578.20001220703</ele>
        <time>2021-03-20T11:00:06Z</time>
      </trkpt>
      <trkpt lat="43.47626" lon="2.39968">
        <ele>578.40002441406</ele>
        <time>2021-03-20T11:00:15Z</time>
      </trkpt>
      <trkpt lat="43.47631" lon="2.39948">
        <ele>578.79998779297</ele>
        <time>2021-03-20T11:00:31Z</time>
      </trkpt>
      <trkpt lat="43.47635" lon="2.39923">
        <ele>579.20001220703</ele>
        <time>2021-03-20T11:00:47Z</time>
      </trkpt>
      <trkpt lat="43.47636" lon="2.39917">
        <ele>579.20001220703</ele>
        <time>2021-03-20T11:00:50Z</time>
      </trkpt>
      <trkpt lat="43.47636" lon="2.39915">
        <ele>579.20001220703</ele>
        <time>2021-03-20T11:00:51Z</time>
      </trkpt>
      <trkpt lat="43.47634" lon="2.39896">
        <ele>579.79998779297</ele>
        <time>2021-03-20T11:01:04Z</time>
      </trkpt>
      <trkpt lat="43.47631" lon="2.39887">
        <ele>580.20001220703</ele>
        <time>2021-03-20T11:01:11Z</time>
      </trkpt>
      <trkpt lat="43.47629" lon="2.3988">
        <ele>580.59997558594</ele>
        <time>2021-03-20T11:01:16Z</time>
      </trkpt>
      <trkpt lat="43.47627" lon="2.39862">
        <ele>581.20001220703</ele>
        <time>2021-03-20T11:01:30Z</time>
      </trkpt>
      <trkpt lat="43.47628" lon="2.39855">
        <ele>581.40002441406</ele>
        <time>2021-03-20T11:01:35Z</time>
      </trkpt>
      <trkpt lat="43.47631" lon="2.39848">
        <ele>581.79998779297</ele>
        <time>2021-03-20T11:01:40Z</time>
      </trkpt>
      <trkpt lat="43.47635" lon="2.39824">
        <ele>582.59997558594</ele>
        <time>2021-03-20T11:01:56Z</time>
      </trkpt>
      <trkpt lat="43.47631" lon="2.39796">
        <ele>584.20001220703</ele>
        <time>2021-03-20T11:02:14Z</time>
      </trkpt>
      <trkpt lat="43.47624" lon="2.39772">
        <ele>585.79998779297</ele>
        <time>2021-03-20T11:02:34Z</time>
      </trkpt>
      <trkpt lat="43.47623" lon="2.39745">
        <ele>587.20001220703</ele>
        <time>2021-03-20T11:02:54Z</time>
      </trkpt>
      <trkpt lat="43.47627" lon="2.39722">
        <ele>587.79998779297</ele>
        <time>2021-03-20T11:03:12Z</time>
      </trkpt>
      <trkpt lat="43.47636" lon="2.39702">
        <ele>588.40002441406</ele>
        <time>2021-03-20T11:03:30Z</time>
      </trkpt>
      <trkpt lat="43.47647" lon="2.39686">
        <ele>589</ele>
        <time>2021-03-20T11:03:50Z</time>
      </trkpt>
      <trkpt lat="43.47655" lon="2.39672">
        <ele>590.40002441406</ele>
        <time>2021-03-20T11:04:06Z</time>
      </trkpt>
      <trkpt lat="43.47674" lon="2.39653">
        <ele>592.79998779297</ele>
        <time>2021-03-20T11:04:31Z</time>
      </trkpt>
      <trkpt lat="43.47682" lon="2.39646">
        <ele>593.79998779297</ele>
        <time>2021-03-20T11:04:47Z</time>
      </trkpt>
      <trkpt lat="43.48004" lon="2.39333">
        <ele>583.59997558594</ele>
        <time>2021-03-20T11:14:38Z</time>
      </trkpt>
      <trkpt lat="43.48004" lon="2.39333">
        <ele>583.59997558594</ele>
        <time>2021-03-20T11:14:39Z</time>
      </trkpt>
      <trkpt lat="43.48005" lon="2.39333">
        <ele>583.59997558594</ele>
        <time>2021-03-20T11:15:03Z</time>
      </trkpt>
      <trkpt lat="43.47998" lon="2.39319">
        <ele>581.59997558594</ele>
        <time>2021-03-20T11:15:20Z</time>
      </trkpt>
      <trkpt lat="43.47999" lon="2.39315">
        <ele>581.40002441406</ele>
        <time>2021-03-20T11:15:22Z</time>
      </trkpt>
      <trkpt lat="43.47998" lon="2.39296">
        <ele>578.20001220703</ele>
        <time>2021-03-20T11:15:37Z</time>
      </trkpt>
      <trkpt lat="43.48007" lon="2.39273">
        <ele>575.20001220703</ele>
        <time>2021-03-20T11:15:52Z</time>
      </trkpt>
      <trkpt lat="43.48015" lon="2.39259">
        <ele>573.40002441406</ele>
        <time>2021-03-20T11:16:02Z</time>
      </trkpt>
      <trkpt lat="43.48018" lon="2.3925">
        <ele>572.20001220703</ele>
        <time>2021-03-20T11:16:08Z</time>
      </trkpt>
      <trkpt lat="43.48021" lon="2.39234">
        <ele>570.40002441406</ele>
        <time>2021-03-20T11:16:20Z</time>
      </trkpt>
      <trkpt lat="43.48037" lon="2.39204">
        <ele>567.20001220703</ele>
        <time>2021-03-20T11:16:39Z</time>
      </trkpt>
      <trkpt lat="43.48038" lon="2.3919">
        <ele>565.40002441406</ele>
        <time>2021-03-20T11:16:50Z</time>
      </trkpt>
      <trkpt lat="43.48042" lon="2.39176">
        <ele>565.20001220703</ele>
        <time>2021-03-20T11:16:58Z</time>
      </trkpt>
      <trkpt lat="43.48046" lon="2.3917">
        <ele>565</ele>
        <time>2021-03-20T11:17:01Z</time>
      </trkpt>
      <trkpt lat="43.48047" lon="2.39168">
        <ele>565</ele>
        <time>2021-03-20T11:17:02Z</time>
      </trkpt>
      <trkpt lat="43.48048" lon="2.39166">
        <ele>565</ele>
        <time>2021-03-20T11:17:03Z</time>
      </trkpt>
      <trkpt lat="43.48049" lon="2.39164">
        <ele>565</ele>
        <time>2021-03-20T11:17:04Z</time>
      </trkpt>
      <trkpt lat="43.48049" lon="2.39163">
        <ele>565</ele>
        <time>2021-03-20T11:17:05Z</time>
      </trkpt>
      <trkpt lat="43.48055" lon="2.3915">
        <ele>564.79998779297</ele>
        <time>2021-03-20T11:17:13Z</time>
      </trkpt>
      <trkpt lat="43.48055" lon="2.39148">
        <ele>564.59997558594</ele>
        <time>2021-03-20T11:17:14Z</time>
      </trkpt>
      <trkpt lat="43.48059" lon="2.3914">
        <ele>563.59997558594</ele>
        <time>2021-03-20T11:17:19Z</time>
      </trkpt>
      <trkpt lat="43.48069" lon="2.39116">
        <ele>562</ele>
        <time>2021-03-20T11:17:34Z</time>
      </trkpt>
      <trkpt lat="43.48071" lon="2.39115">
        <ele>561.79998779297</ele>
        <time>2021-03-20T11:17:35Z</time>
      </trkpt>
      <trkpt lat="43.48071" lon="2.39113">
        <ele>561.59997558594</ele>
        <time>2021-03-20T11:17:36Z</time>
      </trkpt>
      <trkpt lat="43.48072" lon="2.39112">
        <ele>561.59997558594</ele>
        <time>2021-03-20T11:17:37Z</time>
      </trkpt>
      <trkpt lat="43.48073" lon="2.3911">
        <ele>561.59997558594</ele>
        <time>2021-03-20T11:17:38Z</time>
      </trkpt>
      <trkpt lat="43.48073" lon="2.39108">
        <ele>561.40002441406</ele>
        <time>2021-03-20T11:17:39Z</time>
      </trkpt>
      <trkpt lat="43.4808" lon="2.39086">
        <ele>560</ele>
        <time>2021-03-20T11:17:52Z</time>
      </trkpt>
      <trkpt lat="43.48092" lon="2.3906">
        <ele>559</ele>
        <time>2021-03-20T11:18:09Z</time>
      </trkpt>
      <trkpt lat="43.48099" lon="2.39036">
        <ele>557.20001220703</ele>
        <time>2021-03-20T11:18:24Z</time>
      </trkpt>
      <trkpt lat="43.48112" lon="2.39008">
        <ele>555.59997558594</ele>
        <time>2021-03-20T11:18:43Z</time>
      </trkpt>
      <trkpt lat="43.48118" lon="2.38996">
        <ele>554.79998779297</ele>
        <time>2021-03-20T11:18:52Z</time>
      </trkpt>
      <trkpt lat="43.48119" lon="2.38995">
        <ele>554.79998779297</ele>
        <time>2021-03-20T11:18:53Z</time>
      </trkpt>
      <trkpt lat="43.4812" lon="2.38993">
        <ele>554.79998779297</ele>
        <time>2021-03-20T11:18:54Z</time>
      </trkpt>
      <trkpt lat="43.48132" lon="2.38965">
        <ele>554</ele>
        <time>2021-03-20T11:19:13Z</time>
      </trkpt>
      <trkpt lat="43.48145" lon="2.38937">
        <ele>553.40002441406</ele>
        <time>2021-03-20T11:19:33Z</time>
      </trkpt>
      <trkpt lat="43.48156" lon="2.3891">
        <ele>552.20001220703</ele>
        <time>2021-03-20T11:19:51Z</time>
      </trkpt>
      <trkpt lat="43.48169" lon="2.38886">
        <ele>550.40002441406</ele>
        <time>2021-03-20T11:20:10Z</time>
      </trkpt>
      <trkpt lat="43.48172" lon="2.3888">
        <ele>549.79998779297</ele>
        <time>2021-03-20T11:20:29Z</time>
      </trkpt>
      <trkpt lat="43.48172" lon="2.38878">
        <ele>549.59997558594</ele>
        <time>2021-03-20T11:20:47Z</time>
      </trkpt>
      <trkpt lat="43.48172" lon="2.38876">
        <ele>549.59997558594</ele>
        <time>2021-03-20T11:20:53Z</time>
      </trkpt>
      <trkpt lat="43.48173" lon="2.38861">
        <ele>550.79998779297</ele>
        <time>2021-03-20T11:21:05Z</time>
      </trkpt>
      <trkpt lat="43.48182" lon="2.38832">
        <ele>551.40002441406</ele>
        <time>2021-03-20T11:21:24Z</time>
      </trkpt>
      <trkpt lat="43.48182" lon="2.38828">
        <ele>551</ele>
        <time>2021-03-20T11:21:28Z</time>
      </trkpt>
      <trkpt lat="43.48183" lon="2.38826">
        <ele>551</ele>
        <time>2021-03-20T11:21:29Z</time>
      </trkpt>
      <trkpt lat="43.48183" lon="2.38823">
        <ele>551</ele>
        <time>2021-03-20T11:21:31Z</time>
      </trkpt>
      <trkpt lat="43.48189" lon="2.38807">
        <ele>550.40002441406</ele>
        <time>2021-03-20T11:21:45Z</time>
      </trkpt>
      <trkpt lat="43.48189" lon="2.38805">
        <ele>550.40002441406</ele>
        <time>2021-03-20T11:21:46Z</time>
      </trkpt>
      <trkpt lat="43.48189" lon="2.38804">
        <ele>550.40002441406</ele>
        <time>2021-03-20T11:21:47Z</time>
      </trkpt>
      <trkpt lat="43.48189" lon="2.38802">
        <ele>550.40002441406</ele>
        <time>2021-03-20T11:21:48Z</time>
      </trkpt>
      <trkpt lat="43.48189" lon="2.388">
        <ele>550.40002441406</ele>
        <time>2021-03-20T11:21:49Z</time>
      </trkpt>
      <trkpt lat="43.48193" lon="2.38779">
        <ele>550.59997558594</ele>
        <time>2021-03-20T11:22:02Z</time>
      </trkpt>
      <trkpt lat="43.48194" lon="2.38776">
        <ele>550.79998779297</ele>
        <time>2021-03-20T11:22:04Z</time>
      </trkpt>
      <trkpt lat="43.48194" lon="2.38774">
        <ele>550.79998779297</ele>
        <time>2021-03-20T11:22:05Z</time>
      </trkpt>
      <trkpt lat="43.48193" lon="2.38773">
        <ele>550.79998779297</ele>
        <time>2021-03-20T11:22:06Z</time>
      </trkpt>
      <trkpt lat="43.48193" lon="2.38771">
        <ele>551</ele>
        <time>2021-03-20T11:22:07Z</time>
      </trkpt>
      <trkpt lat="43.48193" lon="2.38769">
        <ele>551</ele>
        <time>2021-03-20T11:22:08Z</time>
      </trkpt>
      <trkpt lat="43.48192" lon="2.38744">
        <ele>552.40002441406</ele>
        <time>2021-03-20T11:22:24Z</time>
      </trkpt>
      <trkpt lat="43.48198" lon="2.38719">
        <ele>551.40002441406</ele>
        <time>2021-03-20T11:22:42Z</time>
      </trkpt>
      <trkpt lat="43.48211" lon="2.38702">
        <ele>549.40002441406</ele>
        <time>2021-03-20T11:23:01Z</time>
      </trkpt>
      <trkpt lat="43.48225" lon="2.38694">
        <ele>549</ele>
        <time>2021-03-20T11:23:13Z</time>
      </trkpt>
      <trkpt lat="43.48243" lon="2.38677">
        <ele>550.40002441406</ele>
        <time>2021-03-20T11:23:31Z</time>
      </trkpt>
      <trkpt lat="43.48244" lon="2.3866">
        <ele>552.59997558594</ele>
        <time>2021-03-20T11:23:46Z</time>
      </trkpt>
      <trkpt lat="43.48241" lon="2.38646">
        <ele>555.59997558594</ele>
        <time>2021-03-20T11:24:03Z</time>
      </trkpt>
      <trkpt lat="43.4824" lon="2.38629">
        <ele>558.40002441406</ele>
        <time>2021-03-20T11:24:23Z</time>
      </trkpt>
      <trkpt lat="43.48242" lon="2.38609">
        <ele>560.59997558594</ele>
        <time>2021-03-20T11:24:41Z</time>
      </trkpt>
      <trkpt lat="43.48241" lon="2.38594">
        <ele>562.20001220703</ele>
        <time>2021-03-20T11:24:56Z</time>
      </trkpt>
      <trkpt lat="43.48236" lon="2.38584">
        <ele>564.20001220703</ele>
        <time>2021-03-20T11:25:11Z</time>
      </trkpt>
      <trkpt lat="43.48229" lon="2.38574">
        <ele>567.20001220703</ele>
        <time>2021-03-20T11:25:30Z</time>
      </trkpt>
      <trkpt lat="43.48225" lon="2.38566">
        <ele>569.20001220703</ele>
        <time>2021-03-20T11:25:40Z</time>
      </trkpt>
      <trkpt lat="43.48222" lon="2.38556">
        <ele>569.40002441406</ele>
        <time>2021-03-20T11:25:54Z</time>
      </trkpt>
      <trkpt lat="43.48223" lon="2.38548">
        <ele>569</ele>
        <time>2021-03-20T11:26:18Z</time>
      </trkpt>
      <trkpt lat="43.48229" lon="2.38534">
        <ele>566.79998779297</ele>
        <time>2021-03-20T11:26:35Z</time>
      </trkpt>
      <trkpt lat="43.48234" lon="2.38526">
        <ele>563.79998779297</ele>
        <time>2021-03-20T11:26:47Z</time>
      </trkpt>
      <trkpt lat="43.48242" lon="2.38513">
        <ele>560.59997558594</ele>
        <time>2021-03-20T11:27:04Z</time>
      </trkpt>
      <trkpt lat="43.48253" lon="2.38499">
        <ele>558.79998779297</ele>
        <time>2021-03-20T11:27:20Z</time>
      </trkpt>
      <trkpt lat="43.48262" lon="2.38484">
        <ele>556.79998779297</ele>
        <time>2021-03-20T11:27:37Z</time>
      </trkpt>
      <trkpt lat="43.48269" lon="2.38475">
        <ele>555</ele>
        <time>2021-03-20T11:27:49Z</time>
      </trkpt>
      <trkpt lat="43.4827" lon="2.38474">
        <ele>554.79998779297</ele>
        <time>2021-03-20T11:27:50Z</time>
      </trkpt>
      <trkpt lat="43.48279" lon="2.38452">
        <ele>552.40002441406</ele>
        <time>2021-03-20T11:28:08Z</time>
      </trkpt>
      <trkpt lat="43.4828" lon="2.38449">
        <ele>552</ele>
        <time>2021-03-20T11:28:11Z</time>
      </trkpt>
      <trkpt lat="43.48281" lon="2.38448">
        <ele>551.79998779297</ele>
        <time>2021-03-20T11:28:12Z</time>
      </trkpt>
      <trkpt lat="43.48289" lon="2.38428">
        <ele>549.59997558594</ele>
        <time>2021-03-20T11:28:28Z</time>
      </trkpt>
      <trkpt lat="43.48298" lon="2.38409">
        <ele>547.79998779297</ele>
        <time>2021-03-20T11:28:44Z</time>
      </trkpt>
      <trkpt lat="43.4831" lon="2.38388">
        <ele>545.59997558594</ele>
        <time>2021-03-20T11:29:03Z</time>
      </trkpt>
      <trkpt lat="43.48319" lon="2.38375">
        <ele>544.40002441406</ele>
        <time>2021-03-20T11:29:19Z</time>
      </trkpt>
      <trkpt lat="43.48325" lon="2.38357">
        <ele>542.20001220703</ele>
        <time>2021-03-20T11:29:37Z</time>
      </trkpt>
      <trkpt lat="43.48327" lon="2.38348">
        <ele>540.79998779297</ele>
        <time>2021-03-20T11:29:53Z</time>
      </trkpt>
      <trkpt lat="43.48334" lon="2.3834">
        <ele>538.59997558594</ele>
        <time>2021-03-20T11:30:13Z</time>
      </trkpt>
      <trkpt lat="43.48341" lon="2.38331">
        <ele>535.40002441406</ele>
        <time>2021-03-20T11:30:32Z</time>
      </trkpt>
      <trkpt lat="43.48344" lon="2.38323">
        <ele>532.40002441406</ele>
        <time>2021-03-20T11:30:45Z</time>
      </trkpt>
      <trkpt lat="43.48349" lon="2.3831">
        <ele>529.20001220703</ele>
        <time>2021-03-20T11:31:04Z</time>
      </trkpt>
      <trkpt lat="43.4835" lon="2.38303">
        <ele>527.20001220703</ele>
        <time>2021-03-20T11:31:25Z</time>
      </trkpt>
      <trkpt lat="43.48353" lon="2.3829">
        <ele>524</ele>
        <time>2021-03-20T11:31:43Z</time>
      </trkpt>
      <trkpt lat="43.48354" lon="2.38283">
        <ele>521</ele>
        <time>2021-03-20T11:31:59Z</time>
      </trkpt>
      <trkpt lat="43.4835" lon="2.38275">
        <ele>517.79998779297</ele>
        <time>2021-03-20T11:32:14Z</time>
      </trkpt>
      <trkpt lat="43.4835" lon="2.38269">
        <ele>514.79998779297</ele>
        <time>2021-03-20T11:32:32Z</time>
      </trkpt>
      <trkpt lat="43.48347" lon="2.38259">
        <ele>511.60000610352</ele>
        <time>2021-03-20T11:32:54Z</time>
      </trkpt>
      <trkpt lat="43.48345" lon="2.38252">
        <ele>508.60000610352</ele>
        <time>2021-03-20T11:33:11Z</time>
      </trkpt>
      <trkpt lat="43.48343" lon="2.38249">
        <ele>507.79998779297</ele>
        <time>2021-03-20T11:33:16Z</time>
      </trkpt>
      <trkpt lat="43.48343" lon="2.38241">
        <ele>504.60000610352</ele>
        <time>2021-03-20T11:33:31Z</time>
      </trkpt>
      <trkpt lat="43.48341" lon="2.38234">
        <ele>501.60000610352</ele>
        <time>2021-03-20T11:33:54Z</time>
      </trkpt>
      <trkpt lat="43.48342" lon="2.38224">
        <ele>498.39999389648</ele>
        <time>2021-03-20T11:34:10Z</time>
      </trkpt>
      <trkpt lat="43.48348" lon="2.38212">
        <ele>495.39999389648</ele>
        <time>2021-03-20T11:34:29Z</time>
      </trkpt>
      <trkpt lat="43.48359" lon="2.38205">
        <ele>492.39999389648</ele>
        <time>2021-03-20T11:34:46Z</time>
      </trkpt>
      <trkpt lat="43.48364" lon="2.382">
        <ele>491</ele>
        <time>2021-03-20T11:34:57Z</time>
      </trkpt>
      <trkpt lat="43.4837" lon="2.38191">
        <ele>488</ele>
        <time>2021-03-20T11:35:14Z</time>
      </trkpt>
      <trkpt lat="43.48382" lon="2.3818">
        <ele>484.79998779297</ele>
        <time>2021-03-20T11:35:32Z</time>
      </trkpt>
      <trkpt lat="43.48392" lon="2.38172">
        <ele>481.60000610352</ele>
        <time>2021-03-20T11:35:48Z</time>
      </trkpt>
      <trkpt lat="43.48402" lon="2.38161">
        <ele>478.60000610352</ele>
        <time>2021-03-20T11:36:04Z</time>
      </trkpt>
      <trkpt lat="43.48409" lon="2.38156">
        <ele>475.60000610352</ele>
        <time>2021-03-20T11:36:17Z</time>
      </trkpt>
      <trkpt lat="43.48424" lon="2.38148">
        <ele>473</ele>
        <time>2021-03-20T11:36:34Z</time>
      </trkpt>
      <trkpt lat="43.48429" lon="2.38145">
        <ele>472</ele>
        <time>2021-03-20T11:36:40Z</time>
      </trkpt>
      <trkpt lat="43.48428" lon="2.38145">
        <ele>470.60000610352</ele>
        <time>2021-03-20T11:36:57Z</time>
      </trkpt>
      <trkpt lat="43.48434" lon="2.38135">
        <ele>468.20001220703</ele>
        <time>2021-03-20T11:37:16Z</time>
      </trkpt>
      <trkpt lat="43.48443" lon="2.38125">
        <ele>465.20001220703</ele>
        <time>2021-03-20T11:37:35Z</time>
      </trkpt>
      <trkpt lat="43.48452" lon="2.38117">
        <ele>462.20001220703</ele>
        <time>2021-03-20T11:37:51Z</time>
      </trkpt>
      <trkpt lat="43.48459" lon="2.3811">
        <ele>459</ele>
        <time>2021-03-20T11:38:07Z</time>
      </trkpt>
      <trkpt lat="43.48466" lon="2.38102">
        <ele>455.79998779297</ele>
        <time>2021-03-20T11:38:24Z</time>
      </trkpt>
      <trkpt lat="43.48473" lon="2.38093">
        <ele>453</ele>
        <time>2021-03-20T11:38:41Z</time>
      </trkpt>
      <trkpt lat="43.48479" lon="2.38088">
        <ele>450.20001220703</ele>
        <time>2021-03-20T11:38:59Z</time>
      </trkpt>
      <trkpt lat="43.48479" lon="2.38088">
        <ele>450.20001220703</ele>
        <time>2021-03-20T11:39:20Z</time>
      </trkpt>
      <trkpt lat="43.48481" lon="2.38081">
        <ele>450.20001220703</ele>
        <time>2021-03-20T11:39:36Z</time>
      </trkpt>
      <trkpt lat="43.48483" lon="2.38062">
        <ele>448.39999389648</ele>
        <time>2021-03-20T11:39:54Z</time>
      </trkpt>
      <trkpt lat="43.48478" lon="2.38047">
        <ele>445.39999389648</ele>
        <time>2021-03-20T11:40:11Z</time>
      </trkpt>
      <trkpt lat="43.48465" lon="2.38032">
        <ele>442.39999389648</ele>
        <time>2021-03-20T11:40:31Z</time>
      </trkpt>
      <trkpt lat="43.48461" lon="2.38029">
        <ele>440.79998779297</ele>
        <time>2021-03-20T11:40:50Z</time>
      </trkpt>
      <trkpt lat="43.48453" lon="2.38026">
        <ele>439</ele>
        <time>2021-03-20T11:41:13Z</time>
      </trkpt>
      <trkpt lat="43.48448" lon="2.38026">
        <ele>437.60000610352</ele>
        <time>2021-03-20T11:41:21Z</time>
      </trkpt>
      <trkpt lat="43.48434" lon="2.38032">
        <ele>435.20001220703</ele>
        <time>2021-03-20T11:41:40Z</time>
      </trkpt>
      <trkpt lat="43.48423" lon="2.38035">
        <ele>432.20001220703</ele>
        <time>2021-03-20T11:42:00Z</time>
      </trkpt>
      <trkpt lat="43.48413" lon="2.38038">
        <ele>430</ele>
        <time>2021-03-20T11:42:19Z</time>
      </trkpt>
      <trkpt lat="43.48406" lon="2.3804">
        <ele>427</ele>
        <time>2021-03-20T11:42:36Z</time>
      </trkpt>
      <trkpt lat="43.48394" lon="2.38044">
        <ele>423.79998779297</ele>
        <time>2021-03-20T11:42:56Z</time>
      </trkpt>
      <trkpt lat="43.48383" lon="2.38052">
        <ele>420.79998779297</ele>
        <time>2021-03-20T11:43:14Z</time>
      </trkpt>
      <trkpt lat="43.48373" lon="2.38054">
        <ele>417.60000610352</ele>
        <time>2021-03-20T11:43:30Z</time>
      </trkpt>
      <trkpt lat="43.48356" lon="2.38059">
        <ele>414.79998779297</ele>
        <time>2021-03-20T11:43:53Z</time>
      </trkpt>
      <trkpt lat="43.48341" lon="2.38058">
        <ele>414.39999389648</ele>
        <time>2021-03-20T11:44:12Z</time>
      </trkpt>
      <trkpt lat="43.48332" lon="2.3805">
        <ele>414.79998779297</ele>
        <time>2021-03-20T11:44:30Z</time>
      </trkpt>
      <trkpt lat="43.48318" lon="2.38045">
        <ele>411.60000610352</ele>
        <time>2021-03-20T11:44:51Z</time>
      </trkpt>
      <trkpt lat="43.48308" lon="2.38041">
        <ele>410</ele>
        <time>2021-03-20T11:45:06Z</time>
      </trkpt>
      <trkpt lat="43.483" lon="2.38045">
        <ele>410.60000610352</ele>
        <time>2021-03-20T11:45:22Z</time>
      </trkpt>
      <trkpt lat="43.48288" lon="2.38054">
        <ele>412</ele>
        <time>2021-03-20T11:45:42Z</time>
      </trkpt>
      <trkpt lat="43.48274" lon="2.38056">
        <ele>408.79998779297</ele>
        <time>2021-03-20T11:46:01Z</time>
      </trkpt>
      <trkpt lat="43.48264" lon="2.38061">
        <ele>405.79998779297</ele>
        <time>2021-03-20T11:46:19Z</time>
      </trkpt>
      <trkpt lat="43.48251" lon="2.38074">
        <ele>403</ele>
        <time>2021-03-20T11:46:43Z</time>
      </trkpt>
      <trkpt lat="43.48241" lon="2.3808">
        <ele>403</ele>
        <time>2021-03-20T11:46:58Z</time>
      </trkpt>
      <trkpt lat="43.48233" lon="2.38088">
        <ele>402.60000610352</ele>
        <time>2021-03-20T11:47:12Z</time>
      </trkpt>
      <trkpt lat="43.48229" lon="2.3809">
        <ele>402</ele>
        <time>2021-03-20T11:47:29Z</time>
      </trkpt>
      <trkpt lat="43.48216" lon="2.38096">
        <ele>399.20001220703</ele>
        <time>2021-03-20T11:47:49Z</time>
      </trkpt>
      <trkpt lat="43.48207" lon="2.38094">
        <ele>397.20001220703</ele>
        <time>2021-03-20T11:48:10Z</time>
      </trkpt>
      <trkpt lat="43.48198" lon="2.38088">
        <ele>394.79998779297</ele>
        <time>2021-03-20T11:48:30Z</time>
      </trkpt>
      <trkpt lat="43.48196" lon="2.38085">
        <ele>394.39999389648</ele>
        <time>2021-03-20T11:48:49Z</time>
      </trkpt>
      <trkpt lat="43.48183" lon="2.38078">
        <ele>393.39999389648</ele>
        <time>2021-03-20T11:49:05Z</time>
      </trkpt>
      <trkpt lat="43.48178" lon="2.38067">
        <ele>392</ele>
        <time>2021-03-20T11:49:20Z</time>
      </trkpt>
      <trkpt lat="43.48176" lon="2.38042">
        <ele>391.79998779297</ele>
        <time>2021-03-20T11:49:40Z</time>
      </trkpt>
      <trkpt lat="43.48171" lon="2.38027">
        <ele>392.60000610352</ele>
        <time>2021-03-20T11:49:55Z</time>
      </trkpt>
      <trkpt lat="43.48155" lon="2.38015">
        <ele>393</ele>
        <time>2021-03-20T11:50:13Z</time>
      </trkpt>
      <trkpt lat="43.48139" lon="2.37999">
        <ele>392.79998779297</ele>
        <time>2021-03-20T11:50:31Z</time>
      </trkpt>
      <trkpt lat="43.48122" lon="2.3799">
        <ele>389.79998779297</ele>
        <time>2021-03-20T11:50:51Z</time>
      </trkpt>
      <trkpt lat="43.48105" lon="2.37983">
        <ele>388.20001220703</ele>
        <time>2021-03-20T11:51:10Z</time>
      </trkpt>
      <trkpt lat="43.48087" lon="2.37976">
        <ele>385.39999389648</ele>
        <time>2021-03-20T11:51:31Z</time>
      </trkpt>
      <trkpt lat="43.48071" lon="2.3798">
        <ele>385.79998779297</ele>
        <time>2021-03-20T11:51:50Z</time>
      </trkpt>
      <trkpt lat="43.48055" lon="2.37981">
        <ele>382.79998779297</ele>
        <time>2021-03-20T11:52:08Z</time>
      </trkpt>
      <trkpt lat="43.48039" lon="2.37982">
        <ele>379.60000610352</ele>
        <time>2021-03-20T11:52:26Z</time>
      </trkpt>
      <trkpt lat="43.48032" lon="2.37974">
        <ele>376.39999389648</ele>
        <time>2021-03-20T11:52:42Z</time>
      </trkpt>
      <trkpt lat="43.48019" lon="2.37957">
        <ele>373.39999389648</ele>
        <time>2021-03-20T11:53:00Z</time>
      </trkpt>
      <trkpt lat="43.48015" lon="2.37952">
        <ele>371.60000610352</ele>
        <time>2021-03-20T11:53:18Z</time>
      </trkpt>
      <trkpt lat="43.48001" lon="2.37942">
        <ele>370.39999389648</ele>
        <time>2021-03-20T11:53:36Z</time>
      </trkpt>
      <trkpt lat="43.4799" lon="2.37933">
        <ele>369.39999389648</ele>
        <time>2021-03-20T11:53:57Z</time>
      </trkpt>
      <trkpt lat="43.47979" lon="2.37916">
        <ele>368.60000610352</ele>
        <time>2021-03-20T11:54:12Z</time>
      </trkpt>
      <trkpt lat="43.47969" lon="2.37902">
        <ele>370</ele>
        <time>2021-03-20T11:54:32Z</time>
      </trkpt>
      <trkpt lat="43.47959" lon="2.37883">
        <ele>370.39999389648</ele>
        <time>2021-03-20T11:54:49Z</time>
      </trkpt>
      <trkpt lat="43.47956" lon="2.37879">
        <ele>370.39999389648</ele>
        <time>2021-03-20T11:54:53Z</time>
      </trkpt>
      <trkpt lat="43.47946" lon="2.37866">
        <ele>369</ele>
        <time>2021-03-20T11:55:11Z</time>
      </trkpt>
      <trkpt lat="43.47939" lon="2.37843">
        <ele>367</ele>
        <time>2021-03-20T11:55:32Z</time>
      </trkpt>
      <trkpt lat="43.47933" lon="2.37827">
        <ele>365.20001220703</ele>
        <time>2021-03-20T11:55:51Z</time>
      </trkpt>
      <trkpt lat="43.47929" lon="2.37806">
        <ele>362.79998779297</ele>
        <time>2021-03-20T11:56:09Z</time>
      </trkpt>
      <trkpt lat="43.47916" lon="2.37798">
        <ele>362</ele>
        <time>2021-03-20T11:56:25Z</time>
      </trkpt>
      <trkpt lat="43.47916" lon="2.37794">
        <ele>362</ele>
        <time>2021-03-20T11:56:46Z</time>
      </trkpt>
      <trkpt lat="43.47914" lon="2.37793">
        <ele>362</ele>
        <time>2021-03-20T11:57:17Z</time>
      </trkpt>
      <trkpt lat="43.47915" lon="2.37793">
        <ele>362.79998779297</ele>
        <time>2021-03-20T11:57:44Z</time>
      </trkpt>
      <trkpt lat="43.47914" lon="2.37791">
        <ele>362.60000610352</ele>
        <time>2021-03-20T11:58:10Z</time>
      </trkpt>
      <trkpt lat="43.47914" lon="2.37791">
        <ele>363</ele>
        <time>2021-03-20T11:58:18Z</time>
      </trkpt>
      <trkpt lat="43.47913" lon="2.37795">
        <ele>364.20001220703</ele>
        <time>2021-03-20T11:58:35Z</time>
      </trkpt>
      <trkpt lat="43.47917" lon="2.3779">
        <ele>361.79998779297</ele>
        <time>2021-03-20T11:58:55Z</time>
      </trkpt>
      <trkpt lat="43.47923" lon="2.37783">
        <ele>359.79998779297</ele>
        <time>2021-03-20T11:59:17Z</time>
      </trkpt>
      <trkpt lat="43.47927" lon="2.37781">
        <ele>358</ele>
        <time>2021-03-20T11:59:35Z</time>
      </trkpt>
      <trkpt lat="43.47936" lon="2.37782">
        <ele>356.60000610352</ele>
        <time>2021-03-20T11:59:55Z</time>
      </trkpt>
      <trkpt lat="43.47936" lon="2.37763">
        <ele>358.60000610352</ele>
        <time>2021-03-20T12:00:12Z</time>
      </trkpt>
      <trkpt lat="43.47931" lon="2.37757">
        <ele>361.60000610352</ele>
        <time>2021-03-20T12:00:29Z</time>
      </trkpt>
      <trkpt lat="43.47927" lon="2.37748">
        <ele>364.39999389648</ele>
        <time>2021-03-20T12:00:49Z</time>
      </trkpt>
      <trkpt lat="43.47922" lon="2.37747">
        <ele>367.20001220703</ele>
        <time>2021-03-20T12:01:07Z</time>
      </trkpt>
      <trkpt lat="43.47916" lon="2.3774">
        <ele>370.20001220703</ele>
        <time>2021-03-20T12:01:27Z</time>
      </trkpt>
      <trkpt lat="43.4791" lon="2.37723">
        <ele>372.20001220703</ele>
        <time>2021-03-20T12:01:46Z</time>
      </trkpt>
      <trkpt lat="43.47904" lon="2.37705">
        <ele>372.20001220703</ele>
        <time>2021-03-20T12:02:06Z</time>
      </trkpt>
      <trkpt lat="43.47894" lon="2.37692">
        <ele>375.39999389648</ele>
        <time>2021-03-20T12:02:26Z</time>
      </trkpt>
      <trkpt lat="43.47883" lon="2.37681">
        <ele>378.39999389648</ele>
        <time>2021-03-20T12:02:47Z</time>
      </trkpt>
      <trkpt lat="43.47876" lon="2.37672">
        <ele>380.79998779297</ele>
        <time>2021-03-20T12:03:05Z</time>
      </trkpt>
      <trkpt lat="43.47867" lon="2.37664">
        <ele>383.79998779297</ele>
        <time>2021-03-20T12:03:23Z</time>
      </trkpt>
      <trkpt lat="43.47864" lon="2.37667">
        <ele>386.60000610352</ele>
        <time>2021-03-20T12:03:43Z</time>
      </trkpt>
      <trkpt lat="43.47865" lon="2.3768">
        <ele>388.79998779297</ele>
        <time>2021-03-20T12:04:01Z</time>
      </trkpt>
      <trkpt lat="43.47867" lon="2.37693">
        <ele>391</ele>
        <time>2021-03-20T12:04:20Z</time>
      </trkpt>
      <trkpt lat="43.47863" lon="2.37698">
        <ele>391.79998779297</ele>
        <time>2021-03-20T12:04:48Z</time>
      </trkpt>
      <trkpt lat="43.47858" lon="2.37703">
        <ele>392.60000610352</ele>
        <time>2021-03-20T12:05:07Z</time>
      </trkpt>
      <trkpt lat="43.47855" lon="2.37702">
        <ele>392.79998779297</ele>
        <time>2021-03-20T12:05:30Z</time>
      </trkpt>
      <trkpt lat="43.47852" lon="2.37698">
        <ele>393.79998779297</ele>
        <time>2021-03-20T12:05:49Z</time>
      </trkpt>
      <trkpt lat="43.47851" lon="2.37699">
        <ele>393.39999389648</ele>
        <time>2021-03-20T12:06:11Z</time>
      </trkpt>
      <trkpt lat="43.47851" lon="2.37695">
        <ele>395</ele>
        <time>2021-03-20T12:06:32Z</time>
      </trkpt>
      <trkpt lat="43.47849" lon="2.3769">
        <ele>394.79998779297</ele>
        <time>2021-03-20T12:07:03Z</time>
      </trkpt>
      <trkpt lat="43.47849" lon="2.37689">
        <ele>394.60000610352</ele>
        <time>2021-03-20T12:07:26Z</time>
      </trkpt>
      <trkpt lat="43.47852" lon="2.37691">
        <ele>394.60000610352</ele>
        <time>2021-03-20T12:07:48Z</time>
      </trkpt>
      <trkpt lat="43.47854" lon="2.37694">
        <ele>394.60000610352</ele>
        <time>2021-03-20T12:08:29Z</time>
      </trkpt>
      <trkpt lat="43.47853" lon="2.37695">
        <ele>394.60000610352</ele>
        <time>2021-03-20T12:09:38Z</time>
      </trkpt>
      <trkpt lat="43.47851" lon="2.37695">
        <ele>394.60000610352</ele>
        <time>2021-03-20T12:10:49Z</time>
      </trkpt>
      <trkpt lat="43.47852" lon="2.37693">
        <ele>394.60000610352</ele>
        <time>2021-03-20T12:11:18Z</time>
      </trkpt>
      <trkpt lat="43.47854" lon="2.37697">
        <ele>394.60000610352</ele>
        <time>2021-03-20T12:12:04Z</time>
      </trkpt>
      <trkpt lat="43.47855" lon="2.37697">
        <ele>394.60000610352</ele>
        <time>2021-03-20T12:12:35Z</time>
      </trkpt>
      <trkpt lat="43.47854" lon="2.37698">
        <ele>394.60000610352</ele>
        <time>2021-03-20T12:13:29Z</time>
      </trkpt>
      <trkpt lat="43.47853" lon="2.37697">
        <ele>394.60000610352</ele>
        <time>2021-03-20T12:14:03Z</time>
      </trkpt>
      <trkpt lat="43.47853" lon="2.37694">
        <ele>394.60000610352</ele>
        <time>2021-03-20T12:15:13Z</time>
      </trkpt>
      <trkpt lat="43.47854" lon="2.37693">
        <ele>394.60000610352</ele>
        <time>2021-03-20T12:15:47Z</time>
      </trkpt>
      <trkpt lat="43.47854" lon="2.37692">
        <ele>394.60000610352</ele>
        <time>2021-03-20T12:16:17Z</time>
      </trkpt>
      <trkpt lat="43.47853" lon="2.37694">
        <ele>394.60000610352</ele>
        <time>2021-03-20T12:17:04Z</time>
      </trkpt>
      <trkpt lat="43.47853" lon="2.37697">
        <ele>394.60000610352</ele>
        <time>2021-03-20T12:17:46Z</time>
      </trkpt>
      <trkpt lat="43.47851" lon="2.37696">
        <ele>394.60000610352</ele>
        <time>2021-03-20T12:18:16Z</time>
      </trkpt>
      <trkpt lat="43.47851" lon="2.37695">
        <ele>394.60000610352</ele>
        <time>2021-03-20T12:18:50Z</time>
      </trkpt>
      <trkpt lat="43.47852" lon="2.37694">
        <ele>394.60000610352</ele>
        <time>2021-03-20T12:19:21Z</time>
      </trkpt>
      <trkpt lat="43.47855" lon="2.37695">
        <ele>394.60000610352</ele>
        <time>2021-03-20T12:19:47Z</time>
      </trkpt>
      <trkpt lat="43.47849" lon="2.37693">
        <ele>394.60000610352</ele>
        <time>2021-03-20T12:20:17Z</time>
      </trkpt>
      <trkpt lat="43.4785" lon="2.37693">
        <ele>394.60000610352</ele>
        <time>2021-03-20T12:20:50Z</time>
      </trkpt>
      <trkpt lat="43.47851" lon="2.37694">
        <ele>394.60000610352</ele>
        <time>2021-03-20T12:21:28Z</time>
      </trkpt>
      <trkpt lat="43.47852" lon="2.37695">
        <ele>394.60000610352</ele>
        <time>2021-03-20T12:21:53Z</time>
      </trkpt>
      <trkpt lat="43.47859" lon="2.37697">
        <ele>394.60000610352</ele>
        <time>2021-03-20T12:22:22Z</time>
      </trkpt>
      <trkpt lat="43.47856" lon="2.37695">
        <ele>394.60000610352</ele>
        <time>2021-03-20T12:22:50Z</time>
      </trkpt>
      <trkpt lat="43.47856" lon="2.37694">
        <ele>394.60000610352</ele>
        <time>2021-03-20T12:23:16Z</time>
      </trkpt>
      <trkpt lat="43.47856" lon="2.37691">
        <ele>394.60000610352</ele>
        <time>2021-03-20T12:23:43Z</time>
      </trkpt>
      <trkpt lat="43.47858" lon="2.37691">
        <ele>394.60000610352</ele>
        <time>2021-03-20T12:24:13Z</time>
      </trkpt>
      <trkpt lat="43.47856" lon="2.37693">
        <ele>394.60000610352</ele>
        <time>2021-03-20T12:24:42Z</time>
      </trkpt>
      <trkpt lat="43.47858" lon="2.37695">
        <ele>394.60000610352</ele>
        <time>2021-03-20T12:25:12Z</time>
      </trkpt>
      <trkpt lat="43.47857" lon="2.37694">
        <ele>394.60000610352</ele>
        <time>2021-03-20T12:25:40Z</time>
      </trkpt>
      <trkpt lat="43.47857" lon="2.37694">
        <ele>394.60000610352</ele>
        <time>2021-03-20T12:26:07Z</time>
      </trkpt>
      <trkpt lat="43.47853" lon="2.37692">
        <ele>394.60000610352</ele>
        <time>2021-03-20T12:26:34Z</time>
      </trkpt>
      <trkpt lat="43.47855" lon="2.37691">
        <ele>394.60000610352</ele>
        <time>2021-03-20T12:27:03Z</time>
      </trkpt>
      <trkpt lat="43.47854" lon="2.37691">
        <ele>394.60000610352</ele>
        <time>2021-03-20T12:27:30Z</time>
      </trkpt>
      <trkpt lat="43.47857" lon="2.37694">
        <ele>394.60000610352</ele>
        <time>2021-03-20T12:27:59Z</time>
      </trkpt>
      <trkpt lat="43.47852" lon="2.37691">
        <ele>394.60000610352</ele>
        <time>2021-03-20T12:28:24Z</time>
      </trkpt>
      <trkpt lat="43.47852" lon="2.37692">
        <ele>394.60000610352</ele>
        <time>2021-03-20T12:28:57Z</time>
      </trkpt>
      <trkpt lat="43.47852" lon="2.37691">
        <ele>394.60000610352</ele>
        <time>2021-03-20T12:29:33Z</time>
      </trkpt>
      <trkpt lat="43.47853" lon="2.37693">
        <ele>394.60000610352</ele>
        <time>2021-03-20T12:30:00Z</time>
      </trkpt>
      <trkpt lat="43.47857" lon="2.37694">
        <ele>394.60000610352</ele>
        <time>2021-03-20T12:30:30Z</time>
      </trkpt>
      <trkpt lat="43.47856" lon="2.37694">
        <ele>394.60000610352</ele>
        <time>2021-03-20T12:30:58Z</time>
      </trkpt>
      <trkpt lat="43.47856" lon="2.37696">
        <ele>394.60000610352</ele>
        <time>2021-03-20T12:31:25Z</time>
      </trkpt>
      <trkpt lat="43.47855" lon="2.37696">
        <ele>394.60000610352</ele>
        <time>2021-03-20T12:31:52Z</time>
      </trkpt>
      <trkpt lat="43.47855" lon="2.37696">
        <ele>394.60000610352</ele>
        <time>2021-03-20T12:32:18Z</time>
      </trkpt>
      <trkpt lat="43.47855" lon="2.37694">
        <ele>394.60000610352</ele>
        <time>2021-03-20T12:32:44Z</time>
      </trkpt>
      <trkpt lat="43.47855" lon="2.37694">
        <ele>394.60000610352</ele>
        <time>2021-03-20T12:33:16Z</time>
      </trkpt>
      <trkpt lat="43.47855" lon="2.37695">
        <ele>394.60000610352</ele>
        <time>2021-03-20T12:33:42Z</time>
      </trkpt>
      <trkpt lat="43.47856" lon="2.37696">
        <ele>394.60000610352</ele>
        <time>2021-03-20T12:34:10Z</time>
      </trkpt>
      <trkpt lat="43.4786" lon="2.37697">
        <ele>394.60000610352</ele>
        <time>2021-03-20T12:34:36Z</time>
      </trkpt>
      <trkpt lat="43.47859" lon="2.37695">
        <ele>394.60000610352</ele>
        <time>2021-03-20T12:35:06Z</time>
      </trkpt>
      <trkpt lat="43.47857" lon="2.37692">
        <ele>394.60000610352</ele>
        <time>2021-03-20T12:35:33Z</time>
      </trkpt>
      <trkpt lat="43.47854" lon="2.37693">
        <ele>394.60000610352</ele>
        <time>2021-03-20T12:36:03Z</time>
      </trkpt>
      <trkpt lat="43.47852" lon="2.37692">
        <ele>394.60000610352</ele>
        <time>2021-03-20T12:36:32Z</time>
      </trkpt>
      <trkpt lat="43.47854" lon="2.37694">
        <ele>394.60000610352</ele>
        <time>2021-03-20T12:37:00Z</time>
      </trkpt>
      <trkpt lat="43.47854" lon="2.37695">
        <ele>394.60000610352</ele>
        <time>2021-03-20T12:37:27Z</time>
      </trkpt>
      <trkpt lat="43.47853" lon="2.37694">
        <ele>394.60000610352</ele>
        <time>2021-03-20T12:37:53Z</time>
      </trkpt>
      <trkpt lat="43.47856" lon="2.37694">
        <ele>394.60000610352</ele>
        <time>2021-03-20T12:38:20Z</time>
      </trkpt>
      <trkpt lat="43.47854" lon="2.37695">
        <ele>394.60000610352</ele>
        <time>2021-03-20T12:38:44Z</time>
      </trkpt>
      <trkpt lat="43.47855" lon="2.37695">
        <ele>394.60000610352</ele>
        <time>2021-03-20T12:39:19Z</time>
      </trkpt>
      <trkpt lat="43.47855" lon="2.37694">
        <ele>394.60000610352</ele>
        <time>2021-03-20T12:39:53Z</time>
      </trkpt>
      <trkpt lat="43.47855" lon="2.37694">
        <ele>394.60000610352</ele>
        <time>2021-03-20T12:40:20Z</time>
      </trkpt>
      <trkpt lat="43.47855" lon="2.37692">
        <ele>394.60000610352</ele>
        <time>2021-03-20T12:40:47Z</time>
      </trkpt>
      <trkpt lat="43.47854" lon="2.37693">
        <ele>394.60000610352</ele>
        <time>2021-03-20T12:41:15Z</time>
      </trkpt>
      <trkpt lat="43.47852" lon="2.37694">
        <ele>394.60000610352</ele>
        <time>2021-03-20T12:41:43Z</time>
      </trkpt>
      <trkpt lat="43.47852" lon="2.37697">
        <ele>394.60000610352</ele>
        <time>2021-03-20T12:42:08Z</time>
      </trkpt>
      <trkpt lat="43.47856" lon="2.37694">
        <ele>394.60000610352</ele>
        <time>2021-03-20T12:42:38Z</time>
      </trkpt>
      <trkpt lat="43.47856" lon="2.37693">
        <ele>394.60000610352</ele>
        <time>2021-03-20T12:43:02Z</time>
      </trkpt>
      <trkpt lat="43.47853" lon="2.37687">
        <ele>394.60000610352</ele>
        <time>2021-03-20T12:43:31Z</time>
      </trkpt>
      <trkpt lat="43.47852" lon="2.37684">
        <ele>394.60000610352</ele>
        <time>2021-03-20T12:43:56Z</time>
      </trkpt>
      <trkpt lat="43.47853" lon="2.37685">
        <ele>394.60000610352</ele>
        <time>2021-03-20T12:44:42Z</time>
      </trkpt>
      <trkpt lat="43.47855" lon="2.37689">
        <ele>394.60000610352</ele>
        <time>2021-03-20T12:45:13Z</time>
      </trkpt>
      <trkpt lat="43.47857" lon="2.37691">
        <ele>394.60000610352</ele>
        <time>2021-03-20T12:45:43Z</time>
      </trkpt>
      <trkpt lat="43.47858" lon="2.37691">
        <ele>394.60000610352</ele>
        <time>2021-03-20T12:46:13Z</time>
      </trkpt>
      <trkpt lat="43.47858" lon="2.37693">
        <ele>394.60000610352</ele>
        <time>2021-03-20T12:46:43Z</time>
      </trkpt>
      <trkpt lat="43.47856" lon="2.37693">
        <ele>394.60000610352</ele>
        <time>2021-03-20T12:47:12Z</time>
      </trkpt>
      <trkpt lat="43.47853" lon="2.37693">
        <ele>394.60000610352</ele>
        <time>2021-03-20T12:47:38Z</time>
      </trkpt>
      <trkpt lat="43.47852" lon="2.37694">
        <ele>394.60000610352</ele>
        <time>2021-03-20T12:48:08Z</time>
      </trkpt>
      <trkpt lat="43.47852" lon="2.37693">
        <ele>394.60000610352</ele>
        <time>2021-03-20T12:48:33Z</time>
      </trkpt>
      <trkpt lat="43.47851" lon="2.37693">
        <ele>394.60000610352</ele>
        <time>2021-03-20T12:48:51Z</time>
      </trkpt>
      <trkpt lat="43.47851" lon="2.37692">
        <ele>394.60000610352</ele>
        <time>2021-03-20T12:50:11Z</time>
      </trkpt>
      <trkpt lat="43.47852" lon="2.37693">
        <ele>394.60000610352</ele>
        <time>2021-03-20T12:50:36Z</time>
      </trkpt>
      <trkpt lat="43.47853" lon="2.37692">
        <ele>394.60000610352</ele>
        <time>2021-03-20T12:51:55Z</time>
      </trkpt>
      <trkpt lat="43.47851" lon="2.37691">
        <ele>394.60000610352</ele>
        <time>2021-03-20T12:52:55Z</time>
      </trkpt>
      <trkpt lat="43.4785" lon="2.37689">
        <ele>394.60000610352</ele>
        <time>2021-03-20T12:53:18Z</time>
      </trkpt>
      <trkpt lat="43.4785" lon="2.37695">
        <ele>394.60000610352</ele>
        <time>2021-03-20T12:53:44Z</time>
      </trkpt>
      <trkpt lat="43.4785" lon="2.37696">
        <ele>394.60000610352</ele>
        <time>2021-03-20T12:54:00Z</time>
      </trkpt>
      <trkpt lat="43.47848" lon="2.37697">
        <ele>394.60000610352</ele>
        <time>2021-03-20T12:54:21Z</time>
      </trkpt>
      <trkpt lat="43.4785" lon="2.37696">
        <ele>394.60000610352</ele>
        <time>2021-03-20T12:54:40Z</time>
      </trkpt>
      <trkpt lat="43.47854" lon="2.37698">
        <ele>394.60000610352</ele>
        <time>2021-03-20T12:54:59Z</time>
      </trkpt>
      <trkpt lat="43.47856" lon="2.37701">
        <ele>394.60000610352</ele>
        <time>2021-03-20T12:55:17Z</time>
      </trkpt>
      <trkpt lat="43.47856" lon="2.37707">
        <ele>394.60000610352</ele>
        <time>2021-03-20T12:55:45Z</time>
      </trkpt>
      <trkpt lat="43.47856" lon="2.37718">
        <ele>394.60000610352</ele>
        <time>2021-03-20T12:56:06Z</time>
      </trkpt>
      <trkpt lat="43.47857" lon="2.37719">
        <ele>396.79998779297</ele>
        <time>2021-03-20T12:56:14Z</time>
      </trkpt>
      <trkpt lat="43.47857" lon="2.37724">
        <ele>399</ele>
        <time>2021-03-20T12:56:38Z</time>
      </trkpt>
      <trkpt lat="43.47847" lon="2.37735">
        <ele>399</ele>
        <time>2021-03-20T12:56:57Z</time>
      </trkpt>
      <trkpt lat="43.47837" lon="2.37744">
        <ele>397.39999389648</ele>
        <time>2021-03-20T12:57:10Z</time>
      </trkpt>
      <trkpt lat="43.47824" lon="2.37755">
        <ele>396</ele>
        <time>2021-03-20T12:57:25Z</time>
      </trkpt>
      <trkpt lat="43.4782" lon="2.37757">
        <ele>395</ele>
        <time>2021-03-20T12:57:39Z</time>
      </trkpt>
      <trkpt lat="43.47807" lon="2.37767">
        <ele>394.79998779297</ele>
        <time>2021-03-20T12:57:51Z</time>
      </trkpt>
      <trkpt lat="43.4779" lon="2.37778">
        <ele>394</ele>
        <time>2021-03-20T12:58:05Z</time>
      </trkpt>
      <trkpt lat="43.47783" lon="2.37786">
        <ele>394.79998779297</ele>
        <time>2021-03-20T12:58:18Z</time>
      </trkpt>
      <trkpt lat="43.47779" lon="2.37792">
        <ele>394.60000610352</ele>
        <time>2021-03-20T12:58:32Z</time>
      </trkpt>
      <trkpt lat="43.47771" lon="2.37796">
        <ele>394.39999389648</ele>
        <time>2021-03-20T12:58:45Z</time>
      </trkpt>
      <trkpt lat="43.47758" lon="2.37805">
        <ele>394</ele>
        <time>2021-03-20T12:59:00Z</time>
      </trkpt>
      <trkpt lat="43.47746" lon="2.37815">
        <ele>396.39999389648</ele>
        <time>2021-03-20T12:59:15Z</time>
      </trkpt>
      <trkpt lat="43.47741" lon="2.37823">
        <ele>394.20001220703</ele>
        <time>2021-03-20T12:59:33Z</time>
      </trkpt>
      <trkpt lat="43.47729" lon="2.37834">
        <ele>394.79998779297</ele>
        <time>2021-03-20T12:59:52Z</time>
      </trkpt>
      <trkpt lat="43.4772" lon="2.37837">
        <ele>398</ele>
        <time>2021-03-20T13:00:05Z</time>
      </trkpt>
      <trkpt lat="43.47713" lon="2.37839">
        <ele>400</ele>
        <time>2021-03-20T13:00:24Z</time>
      </trkpt>
      <trkpt lat="43.47708" lon="2.37841">
        <ele>403</ele>
        <time>2021-03-20T13:00:37Z</time>
      </trkpt>
      <trkpt lat="43.47702" lon="2.37836">
        <ele>405.20001220703</ele>
        <time>2021-03-20T13:00:55Z</time>
      </trkpt>
      <trkpt lat="43.47702" lon="2.37839">
        <ele>406.20001220703</ele>
        <time>2021-03-20T13:01:12Z</time>
      </trkpt>
      <trkpt lat="43.47701" lon="2.37844">
        <ele>408.39999389648</ele>
        <time>2021-03-20T13:01:31Z</time>
      </trkpt>
      <trkpt lat="43.47687" lon="2.37836">
        <ele>409.20001220703</ele>
        <time>2021-03-20T13:01:50Z</time>
      </trkpt>
      <trkpt lat="43.47681" lon="2.3783">
        <ele>412.60000610352</ele>
        <time>2021-03-20T13:02:07Z</time>
      </trkpt>
      <trkpt lat="43.47677" lon="2.37825">
        <ele>415.60000610352</ele>
        <time>2021-03-20T13:02:26Z</time>
      </trkpt>
      <trkpt lat="43.47674" lon="2.3782">
        <ele>418.60000610352</ele>
        <time>2021-03-20T13:02:44Z</time>
      </trkpt>
      <trkpt lat="43.47667" lon="2.37812">
        <ele>419.79998779297</ele>
        <time>2021-03-20T13:03:03Z</time>
      </trkpt>
      <trkpt lat="43.47665" lon="2.37796">
        <ele>420</ele>
        <time>2021-03-20T13:03:16Z</time>
      </trkpt>
      <trkpt lat="43.47663" lon="2.37796">
        <ele>423</ele>
        <time>2021-03-20T13:03:33Z</time>
      </trkpt>
      <trkpt lat="43.47663" lon="2.37803">
        <ele>426</ele>
        <time>2021-03-20T13:03:45Z</time>
      </trkpt>
      <trkpt lat="43.47664" lon="2.37813">
        <ele>428.39999389648</ele>
        <time>2021-03-20T13:04:05Z</time>
      </trkpt>
      <trkpt lat="43.47661" lon="2.37823">
        <ele>431.39999389648</ele>
        <time>2021-03-20T13:04:21Z</time>
      </trkpt>
      <trkpt lat="43.47662" lon="2.37834">
        <ele>434.39999389648</ele>
        <time>2021-03-20T13:04:38Z</time>
      </trkpt>
      <trkpt lat="43.4766" lon="2.37839">
        <ele>437</ele>
        <time>2021-03-20T13:04:57Z</time>
      </trkpt>
      <trkpt lat="43.4766" lon="2.37846">
        <ele>440.20001220703</ele>
        <time>2021-03-20T13:05:13Z</time>
      </trkpt>
      <trkpt lat="43.4766" lon="2.37847">
        <ele>441.79998779297</ele>
        <time>2021-03-20T13:05:16Z</time>
      </trkpt>
      <trkpt lat="43.47656" lon="2.37845">
        <ele>444.20001220703</ele>
        <time>2021-03-20T13:05:32Z</time>
      </trkpt>
      <trkpt lat="43.47652" lon="2.37846">
        <ele>443.60000610352</ele>
        <time>2021-03-20T13:05:54Z</time>
      </trkpt>
      <trkpt lat="43.47656" lon="2.37856">
        <ele>443.20001220703</ele>
        <time>2021-03-20T13:06:11Z</time>
      </trkpt>
      <trkpt lat="43.47655" lon="2.37867">
        <ele>446.39999389648</ele>
        <time>2021-03-20T13:06:23Z</time>
      </trkpt>
      <trkpt lat="43.47655" lon="2.3787">
        <ele>447.79998779297</ele>
        <time>2021-03-20T13:06:26Z</time>
      </trkpt>
      <trkpt lat="43.47644" lon="2.37877">
        <ele>449.39999389648</ele>
        <time>2021-03-20T13:06:47Z</time>
      </trkpt>
      <trkpt lat="43.47629" lon="2.37877">
        <ele>450</ele>
        <time>2021-03-20T13:07:04Z</time>
      </trkpt>
      <trkpt lat="43.47611" lon="2.37877">
        <ele>451.60000610352</ele>
        <time>2021-03-20T13:07:28Z</time>
      </trkpt>
      <trkpt lat="43.47599" lon="2.37875">
        <ele>454.20001220703</ele>
        <time>2021-03-20T13:07:54Z</time>
      </trkpt>
      <trkpt lat="43.47605" lon="2.37866">
        <ele>456.60000610352</ele>
        <time>2021-03-20T13:08:14Z</time>
      </trkpt>
      <trkpt lat="43.4761" lon="2.37862">
        <ele>458.60000610352</ele>
        <time>2021-03-20T13:08:34Z</time>
      </trkpt>
      <trkpt lat="43.47603" lon="2.37859">
        <ele>460.60000610352</ele>
        <time>2021-03-20T13:08:52Z</time>
      </trkpt>
      <trkpt lat="43.47592" lon="2.37862">
        <ele>462.79998779297</ele>
        <time>2021-03-20T13:09:13Z</time>
      </trkpt>
      <trkpt lat="43.47585" lon="2.37863">
        <ele>464.60000610352</ele>
        <time>2021-03-20T13:09:33Z</time>
      </trkpt>
      <trkpt lat="43.47573" lon="2.37863">
        <ele>467.60000610352</ele>
        <time>2021-03-20T13:10:01Z</time>
      </trkpt>
      <trkpt lat="43.47579" lon="2.37852">
        <ele>469.79998779297</ele>
        <time>2021-03-20T13:10:24Z</time>
      </trkpt>
      <trkpt lat="43.47592" lon="2.37842">
        <ele>472.39999389648</ele>
        <time>2021-03-20T13:10:49Z</time>
      </trkpt>
      <trkpt lat="43.47583" lon="2.37838">
        <ele>474.60000610352</ele>
        <time>2021-03-20T13:11:14Z</time>
      </trkpt>
      <trkpt lat="43.47573" lon="2.37839">
        <ele>476.39999389648</ele>
        <time>2021-03-20T13:11:35Z</time>
      </trkpt>
      <trkpt lat="43.47571" lon="2.37825">
        <ele>478.39999389648</ele>
        <time>2021-03-20T13:11:55Z</time>
      </trkpt>
      <trkpt lat="43.47558" lon="2.37823">
        <ele>480.79998779297</ele>
        <time>2021-03-20T13:12:18Z</time>
      </trkpt>
      <trkpt lat="43.4755" lon="2.37812">
        <ele>483.20001220703</ele>
        <time>2021-03-20T13:12:40Z</time>
      </trkpt>
      <trkpt lat="43.47544" lon="2.37808">
        <ele>484.20001220703</ele>
        <time>2021-03-20T13:12:57Z</time>
      </trkpt>
      <trkpt lat="43.47537" lon="2.37811">
        <ele>484.20001220703</ele>
        <time>2021-03-20T13:13:07Z</time>
      </trkpt>
      <trkpt lat="43.47533" lon="2.37814">
        <ele>484.79998779297</ele>
        <time>2021-03-20T13:13:17Z</time>
      </trkpt>
      <trkpt lat="43.47518" lon="2.37816">
        <ele>486.20001220703</ele>
        <time>2021-03-20T13:13:47Z</time>
      </trkpt>
      <trkpt lat="43.47504" lon="2.37823">
        <ele>487.39999389648</ele>
        <time>2021-03-20T13:14:04Z</time>
      </trkpt>
      <trkpt lat="43.47496" lon="2.3782">
        <ele>489.39999389648</ele>
        <time>2021-03-20T13:14:20Z</time>
      </trkpt>
      <trkpt lat="43.47497" lon="2.37812">
        <ele>492</ele>
        <time>2021-03-20T13:14:40Z</time>
      </trkpt>
      <trkpt lat="43.47507" lon="2.37799">
        <ele>494.60000610352</ele>
        <time>2021-03-20T13:15:02Z</time>
      </trkpt>
      <trkpt lat="43.47503" lon="2.37786">
        <ele>497</ele>
        <time>2021-03-20T13:15:25Z</time>
      </trkpt>
      <trkpt lat="43.47516" lon="2.37763">
        <ele>499.20001220703</ele>
        <time>2021-03-20T13:15:48Z</time>
      </trkpt>
      <trkpt lat="43.4751" lon="2.37768">
        <ele>499.39999389648</ele>
        <time>2021-03-20T13:16:08Z</time>
      </trkpt>
      <trkpt lat="43.47516" lon="2.37766">
        <ele>499.60000610352</ele>
        <time>2021-03-20T13:16:42Z</time>
      </trkpt>
      <trkpt lat="43.47528" lon="2.37765">
        <ele>498.39999389648</ele>
        <time>2021-03-20T13:17:07Z</time>
      </trkpt>
      <trkpt lat="43.47533" lon="2.37765">
        <ele>498.20001220703</ele>
        <time>2021-03-20T13:17:28Z</time>
      </trkpt>
      <trkpt lat="43.47548" lon="2.37772">
        <ele>498.20001220703</ele>
        <time>2021-03-20T13:17:47Z</time>
      </trkpt>
      <trkpt lat="43.4755" lon="2.37772">
        <ele>498.60000610352</ele>
        <time>2021-03-20T13:17:51Z</time>
      </trkpt>
      <trkpt lat="43.47555" lon="2.37779">
        <ele>501.39999389648</ele>
        <time>2021-03-20T13:18:07Z</time>
      </trkpt>
      <trkpt lat="43.47561" lon="2.37791">
        <ele>503.79998779297</ele>
        <time>2021-03-20T13:18:27Z</time>
      </trkpt>
      <trkpt lat="43.47557" lon="2.37796">
        <ele>506.39999389648</ele>
        <time>2021-03-20T13:18:45Z</time>
      </trkpt>
      <trkpt lat="43.47551" lon="2.37794">
        <ele>508.79998779297</ele>
        <time>2021-03-20T13:19:05Z</time>
      </trkpt>
      <trkpt lat="43.47546" lon="2.37794">
        <ele>511.60000610352</ele>
        <time>2021-03-20T13:19:24Z</time>
      </trkpt>
      <trkpt lat="43.47542" lon="2.37795">
        <ele>514.20001220703</ele>
        <time>2021-03-20T13:19:45Z</time>
      </trkpt>
      <trkpt lat="43.47541" lon="2.37792">
        <ele>515.59997558594</ele>
        <time>2021-03-20T13:20:03Z</time>
      </trkpt>
      <trkpt lat="43.4754" lon="2.37789">
        <ele>514.79998779297</ele>
        <time>2021-03-20T13:20:23Z</time>
      </trkpt>
      <trkpt lat="43.47544" lon="2.37793">
        <ele>515.79998779297</ele>
        <time>2021-03-20T13:20:45Z</time>
      </trkpt>
      <trkpt lat="43.47544" lon="2.37797">
        <ele>513.59997558594</ele>
        <time>2021-03-20T13:21:02Z</time>
      </trkpt>
      <trkpt lat="43.47541" lon="2.37797">
        <ele>511.79998779297</ele>
        <time>2021-03-20T13:21:25Z</time>
      </trkpt>
      <trkpt lat="43.47536" lon="2.37799">
        <ele>510</ele>
        <time>2021-03-20T13:21:45Z</time>
      </trkpt>
      <trkpt lat="43.47533" lon="2.37801">
        <ele>507</ele>
        <time>2021-03-20T13:22:07Z</time>
      </trkpt>
      <trkpt lat="43.47529" lon="2.37787">
        <ele>506.39999389648</ele>
        <time>2021-03-20T13:22:27Z</time>
      </trkpt>
      <trkpt lat="43.47525" lon="2.37776">
        <ele>505.79998779297</ele>
        <time>2021-03-20T13:22:44Z</time>
      </trkpt>
      <trkpt lat="43.47531" lon="2.37766">
        <ele>502.60000610352</ele>
        <time>2021-03-20T13:23:05Z</time>
      </trkpt>
      <trkpt lat="43.47527" lon="2.37758">
        <ele>500.39999389648</ele>
        <time>2021-03-20T13:23:24Z</time>
      </trkpt>
      <trkpt lat="43.47515" lon="2.37764">
        <ele>500.39999389648</ele>
        <time>2021-03-20T13:23:42Z</time>
      </trkpt>
      <trkpt lat="43.47507" lon="2.37785">
        <ele>499.60000610352</ele>
        <time>2021-03-20T13:24:00Z</time>
      </trkpt>
      <trkpt lat="43.47506" lon="2.37786">
        <ele>499.79998779297</ele>
        <time>2021-03-20T13:24:16Z</time>
      </trkpt>
      <trkpt lat="43.47499" lon="2.37781">
        <ele>499.79998779297</ele>
        <time>2021-03-20T13:24:34Z</time>
      </trkpt>
      <trkpt lat="43.47511" lon="2.37785">
        <ele>498.79998779297</ele>
        <time>2021-03-20T13:25:34Z</time>
      </trkpt>
      <trkpt lat="43.47515" lon="2.37801">
        <ele>496.79998779297</ele>
        <time>2021-03-20T13:25:48Z</time>
      </trkpt>
      <trkpt lat="43.47506" lon="2.37814">
        <ele>494</ele>
        <time>2021-03-20T13:26:06Z</time>
      </trkpt>
      <trkpt lat="43.47508" lon="2.37816">
        <ele>492</ele>
        <time>2021-03-20T13:26:25Z</time>
      </trkpt>
      <trkpt lat="43.47517" lon="2.3782">
        <ele>489.20001220703</ele>
        <time>2021-03-20T13:26:48Z</time>
      </trkpt>
      <trkpt lat="43.47517" lon="2.37829">
        <ele>488.39999389648</ele>
        <time>2021-03-20T13:26:57Z</time>
      </trkpt>
      <trkpt lat="43.47513" lon="2.37828">
        <ele>488.20001220703</ele>
        <time>2021-03-20T13:27:14Z</time>
      </trkpt>
      <trkpt lat="43.47516" lon="2.37827">
        <ele>488</ele>
        <time>2021-03-20T13:27:19Z</time>
      </trkpt>
      <trkpt lat="43.47522" lon="2.37821">
        <ele>487.60000610352</ele>
        <time>2021-03-20T13:27:36Z</time>
      </trkpt>
      <trkpt lat="43.47521" lon="2.37819">
        <ele>487.79998779297</ele>
        <time>2021-03-20T13:28:00Z</time>
      </trkpt>
      <trkpt lat="43.4752" lon="2.3782">
        <ele>488.20001220703</ele>
        <time>2021-03-20T13:28:02Z</time>
      </trkpt>
      <trkpt lat="43.47516" lon="2.37824">
        <ele>487.79998779297</ele>
        <time>2021-03-20T13:28:27Z</time>
      </trkpt>
      <trkpt lat="43.47518" lon="2.37821">
        <ele>487.79998779297</ele>
        <time>2021-03-20T13:29:39Z</time>
      </trkpt>
      <trkpt lat="43.47511" lon="2.37816">
        <ele>487.79998779297</ele>
        <time>2021-03-20T13:30:49Z</time>
      </trkpt>
      <trkpt lat="43.47517" lon="2.3782">
        <ele>487.79998779297</ele>
        <time>2021-03-20T13:31:31Z</time>
      </trkpt>
      <trkpt lat="43.4752" lon="2.3782">
        <ele>487.79998779297</ele>
        <time>2021-03-20T13:31:50Z</time>
      </trkpt>
      <trkpt lat="43.47524" lon="2.37819">
        <ele>487.79998779297</ele>
        <time>2021-03-20T13:31:57Z</time>
      </trkpt>
      <trkpt lat="43.47534" lon="2.37812">
        <ele>486.39999389648</ele>
        <time>2021-03-20T13:32:15Z</time>
      </trkpt>
      <trkpt lat="43.47551" lon="2.37813">
        <ele>485</ele>
        <time>2021-03-20T13:32:30Z</time>
      </trkpt>
      <trkpt lat="43.47562" lon="2.37816">
        <ele>482.20001220703</ele>
        <time>2021-03-20T13:32:49Z</time>
      </trkpt>
      <trkpt lat="43.4757" lon="2.37823">
        <ele>480.79998779297</ele>
        <time>2021-03-20T13:32:56Z</time>
      </trkpt>
      <trkpt lat="43.47572" lon="2.37837">
        <ele>477.79998779297</ele>
        <time>2021-03-20T13:33:11Z</time>
      </trkpt>
      <trkpt lat="43.47589" lon="2.37833">
        <ele>474.60000610352</ele>
        <time>2021-03-20T13:33:30Z</time>
      </trkpt>
      <trkpt lat="43.47595" lon="2.37839">
        <ele>471.60000610352</ele>
        <time>2021-03-20T13:33:47Z</time>
      </trkpt>
      <trkpt lat="43.47603" lon="2.3784">
        <ele>469</ele>
        <time>2021-03-20T13:34:06Z</time>
      </trkpt>
      <trkpt lat="43.47598" lon="2.37839">
        <ele>469.79998779297</ele>
        <time>2021-03-20T13:34:22Z</time>
      </trkpt>
      <trkpt lat="43.47586" lon="2.37847">
        <ele>471.20001220703</ele>
        <time>2021-03-20T13:34:42Z</time>
      </trkpt>
      <trkpt lat="43.47577" lon="2.37851">
        <ele>469</ele>
        <time>2021-03-20T13:34:59Z</time>
      </trkpt>
      <trkpt lat="43.47583" lon="2.3786">
        <ele>466.79998779297</ele>
        <time>2021-03-20T13:35:16Z</time>
      </trkpt>
      <trkpt lat="43.47591" lon="2.37856">
        <ele>463.79998779297</ele>
        <time>2021-03-20T13:35:33Z</time>
      </trkpt>
      <trkpt lat="43.47604" lon="2.37854">
        <ele>460.79998779297</ele>
        <time>2021-03-20T13:35:53Z</time>
      </trkpt>
      <trkpt lat="43.47604" lon="2.37858">
        <ele>457.60000610352</ele>
        <time>2021-03-20T13:36:07Z</time>
      </trkpt>
      <trkpt lat="43.47593" lon="2.37863">
        <ele>454.60000610352</ele>
        <time>2021-03-20T13:36:27Z</time>
      </trkpt>
      <trkpt lat="43.476" lon="2.37872">
        <ele>451.60000610352</ele>
        <time>2021-03-20T13:36:45Z</time>
      </trkpt>
      <trkpt lat="43.4761" lon="2.37874">
        <ele>448.39999389648</ele>
        <time>2021-03-20T13:37:01Z</time>
      </trkpt>
      <trkpt lat="43.47617" lon="2.37873">
        <ele>447.60000610352</ele>
        <time>2021-03-20T13:37:23Z</time>
      </trkpt>
      <trkpt lat="43.47631" lon="2.37872">
        <ele>444.60000610352</ele>
        <time>2021-03-20T13:37:37Z</time>
      </trkpt>
      <trkpt lat="43.47641" lon="2.3788">
        <ele>442</ele>
        <time>2021-03-20T13:37:58Z</time>
      </trkpt>
      <trkpt lat="43.47633" lon="2.37888">
        <ele>440.79998779297</ele>
        <time>2021-03-20T13:38:18Z</time>
      </trkpt>
      <trkpt lat="43.47607" lon="2.3789">
        <ele>438.79998779297</ele>
        <time>2021-03-20T13:38:35Z</time>
      </trkpt>
      <trkpt lat="43.47596" lon="2.37896">
        <ele>436.79998779297</ele>
        <time>2021-03-20T13:38:53Z</time>
      </trkpt>
      <trkpt lat="43.47589" lon="2.37897">
        <ele>436.60000610352</ele>
        <time>2021-03-20T13:38:59Z</time>
      </trkpt>
      <trkpt lat="43.47572" lon="2.379">
        <ele>436</ele>
        <time>2021-03-20T13:39:12Z</time>
      </trkpt>
      <trkpt lat="43.47568" lon="2.37905">
        <ele>432.79998779297</ele>
        <time>2021-03-20T13:39:30Z</time>
      </trkpt>
      <trkpt lat="43.47573" lon="2.37911">
        <ele>431</ele>
        <time>2021-03-20T13:39:51Z</time>
      </trkpt>
      <trkpt lat="43.47565" lon="2.3792">
        <ele>427.79998779297</ele>
        <time>2021-03-20T13:40:07Z</time>
      </trkpt>
      <trkpt lat="43.47556" lon="2.37926">
        <ele>424.79998779297</ele>
        <time>2021-03-20T13:40:26Z</time>
      </trkpt>
      <trkpt lat="43.47554" lon="2.37934">
        <ele>421.79998779297</ele>
        <time>2021-03-20T13:40:43Z</time>
      </trkpt>
      <trkpt lat="43.4756" lon="2.37932">
        <ele>418.79998779297</ele>
        <time>2021-03-20T13:40:59Z</time>
      </trkpt>
      <trkpt lat="43.47574" lon="2.37936">
        <ele>415.79998779297</ele>
        <time>2021-03-20T13:41:18Z</time>
      </trkpt>
      <trkpt lat="43.47586" lon="2.3794">
        <ele>412.60000610352</ele>
        <time>2021-03-20T13:41:36Z</time>
      </trkpt>
      <trkpt lat="43.47599" lon="2.37942">
        <ele>409.60000610352</ele>
        <time>2021-03-20T13:41:55Z</time>
      </trkpt>
      <trkpt lat="43.47607" lon="2.37944">
        <ele>407.60000610352</ele>
        <time>2021-03-20T13:42:16Z</time>
      </trkpt>
      <trkpt lat="43.47604" lon="2.37952">
        <ele>406</ele>
        <time>2021-03-20T13:42:33Z</time>
      </trkpt>
      <trkpt lat="43.47593" lon="2.37962">
        <ele>403.20001220703</ele>
        <time>2021-03-20T13:42:53Z</time>
      </trkpt>
      <trkpt lat="43.47587" lon="2.3797">
        <ele>400</ele>
        <time>2021-03-20T13:43:08Z</time>
      </trkpt>
      <trkpt lat="43.47572" lon="2.37977">
        <ele>398</ele>
        <time>2021-03-20T13:43:25Z</time>
      </trkpt>
      <trkpt lat="43.47568" lon="2.37986">
        <ele>395</ele>
        <time>2021-03-20T13:43:40Z</time>
      </trkpt>
      <trkpt lat="43.47561" lon="2.38001">
        <ele>391.79998779297</ele>
        <time>2021-03-20T13:43:57Z</time>
      </trkpt>
      <trkpt lat="43.47555" lon="2.38012">
        <ele>390.39999389648</ele>
        <time>2021-03-20T13:44:21Z</time>
      </trkpt>
      <trkpt lat="43.47564" lon="2.38007">
        <ele>387.39999389648</ele>
        <time>2021-03-20T13:44:38Z</time>
      </trkpt>
      <trkpt lat="43.47575" lon="2.38003">
        <ele>384.60000610352</ele>
        <time>2021-03-20T13:45:02Z</time>
      </trkpt>
      <trkpt lat="43.47586" lon="2.38002">
        <ele>383.39999389648</ele>
        <time>2021-03-20T13:45:20Z</time>
      </trkpt>
      <trkpt lat="43.476" lon="2.38002">
        <ele>380.79998779297</ele>
        <time>2021-03-20T13:45:41Z</time>
      </trkpt>
      <trkpt lat="43.47608" lon="2.38002">
        <ele>377.79998779297</ele>
        <time>2021-03-20T13:45:53Z</time>
      </trkpt>
      <trkpt lat="43.47618" lon="2.38005">
        <ele>374.79998779297</ele>
        <time>2021-03-20T13:46:12Z</time>
      </trkpt>
      <trkpt lat="43.47629" lon="2.38005">
        <ele>373.79998779297</ele>
        <time>2021-03-20T13:46:31Z</time>
      </trkpt>
      <trkpt lat="43.47638" lon="2.38007">
        <ele>370.79998779297</ele>
        <time>2021-03-20T13:46:52Z</time>
      </trkpt>
      <trkpt lat="43.47641" lon="2.38007">
        <ele>370</ele>
        <time>2021-03-20T13:47:16Z</time>
      </trkpt>
      <trkpt lat="43.47639" lon="2.38011">
        <ele>370.20001220703</ele>
        <time>2021-03-20T13:47:41Z</time>
      </trkpt>
      <trkpt lat="43.47647" lon="2.38011">
        <ele>370.60000610352</ele>
        <time>2021-03-20T13:48:07Z</time>
      </trkpt>
      <trkpt lat="43.4766" lon="2.38011">
        <ele>367.39999389648</ele>
        <time>2021-03-20T13:48:24Z</time>
      </trkpt>
      <trkpt lat="43.47673" lon="2.38013">
        <ele>364.39999389648</ele>
        <time>2021-03-20T13:48:43Z</time>
      </trkpt>
      <trkpt lat="43.47681" lon="2.38014">
        <ele>363</ele>
        <time>2021-03-20T13:49:00Z</time>
      </trkpt>
      <trkpt lat="43.47685" lon="2.38016">
        <ele>360.79998779297</ele>
        <time>2021-03-20T13:49:18Z</time>
      </trkpt>
      <trkpt lat="43.477" lon="2.38021">
        <ele>357.60000610352</ele>
        <time>2021-03-20T13:49:33Z</time>
      </trkpt>
      <trkpt lat="43.47707" lon="2.38023">
        <ele>354.60000610352</ele>
        <time>2021-03-20T13:49:50Z</time>
      </trkpt>
      <trkpt lat="43.47715" lon="2.38023">
        <ele>352</ele>
        <time>2021-03-20T13:50:10Z</time>
      </trkpt>
      <trkpt lat="43.47722" lon="2.38021">
        <ele>351</ele>
        <time>2021-03-20T13:50:30Z</time>
      </trkpt>
      <trkpt lat="43.47736" lon="2.38007">
        <ele>348.79998779297</ele>
        <time>2021-03-20T13:50:50Z</time>
      </trkpt>
      <trkpt lat="43.47753" lon="2.3799">
        <ele>347.20001220703</ele>
        <time>2021-03-20T13:51:09Z</time>
      </trkpt>
      <trkpt lat="43.47759" lon="2.37978">
        <ele>344.20001220703</ele>
        <time>2021-03-20T13:51:27Z</time>
      </trkpt>
      <trkpt lat="43.47762" lon="2.37996">
        <ele>341</ele>
        <time>2021-03-20T13:51:42Z</time>
      </trkpt>
      <trkpt lat="43.4776" lon="2.38011">
        <ele>338</ele>
        <time>2021-03-20T13:51:58Z</time>
      </trkpt>
      <trkpt lat="43.47757" lon="2.38033">
        <ele>335.60000610352</ele>
        <time>2021-03-20T13:52:17Z</time>
      </trkpt>
      <trkpt lat="43.47756" lon="2.38036">
        <ele>335.20001220703</ele>
        <time>2021-03-20T13:52:19Z</time>
      </trkpt>
      <trkpt lat="43.47756" lon="2.38037">
        <ele>335</ele>
        <time>2021-03-20T13:52:20Z</time>
      </trkpt>
      <trkpt lat="43.47749" lon="2.38058">
        <ele>333.20001220703</ele>
        <time>2021-03-20T13:52:37Z</time>
      </trkpt>
      <trkpt lat="43.47747" lon="2.38062">
        <ele>333</ele>
        <time>2021-03-20T13:52:40Z</time>
      </trkpt>
      <trkpt lat="43.47742" lon="2.38075">
        <ele>332.60000610352</ele>
        <time>2021-03-20T13:52:50Z</time>
      </trkpt>
      <trkpt lat="43.4774" lon="2.38077">
        <ele>332.60000610352</ele>
        <time>2021-03-20T13:52:51Z</time>
      </trkpt>
      <trkpt lat="43.47741" lon="2.38077">
        <ele>332.60000610352</ele>
        <time>2021-03-20T13:52:52Z</time>
      </trkpt>
      <trkpt lat="43.47729" lon="2.38082">
        <ele>332.60000610352</ele>
        <time>2021-03-20T13:53:03Z</time>
      </trkpt>
      <trkpt lat="43.47722" lon="2.3808">
        <ele>332.60000610352</ele>
        <time>2021-03-20T13:53:10Z</time>
      </trkpt>
      <trkpt lat="43.47714" lon="2.38079">
        <ele>332.60000610352</ele>
        <time>2021-03-20T13:53:15Z</time>
      </trkpt>
      <trkpt lat="43.47713" lon="2.38079">
        <ele>332.60000610352</ele>
        <time>2021-03-20T13:53:16Z</time>
      </trkpt>
      <trkpt lat="43.47711" lon="2.38079">
        <ele>332.60000610352</ele>
        <time>2021-03-20T13:53:17Z</time>
      </trkpt>
      <trkpt lat="43.47705" lon="2.38077">
        <ele>333.60000610352</ele>
        <time>2021-03-20T13:53:28Z</time>
      </trkpt>
      <trkpt lat="43.47698" lon="2.38075">
        <ele>334</ele>
        <time>2021-03-20T13:53:46Z</time>
      </trkpt>
      <trkpt lat="43.47699" lon="2.38071">
        <ele>334.20001220703</ele>
        <time>2021-03-20T13:54:13Z</time>
      </trkpt>
      <trkpt lat="43.47691" lon="2.38073">
        <ele>334.39999389648</ele>
        <time>2021-03-20T13:54:22Z</time>
      </trkpt>
      <trkpt lat="43.47684" lon="2.38071">
        <ele>334.79998779297</ele>
        <time>2021-03-20T13:54:27Z</time>
      </trkpt>
      <trkpt lat="43.47671" lon="2.38066">
        <ele>335.39999389648</ele>
        <time>2021-03-20T13:54:42Z</time>
      </trkpt>
      <trkpt lat="43.47662" lon="2.38063">
        <ele>336</ele>
        <time>2021-03-20T13:54:57Z</time>
      </trkpt>
      <trkpt lat="43.4766" lon="2.38064">
        <ele>336.20001220703</ele>
        <time>2021-03-20T13:54:58Z</time>
      </trkpt>
      <trkpt lat="43.47659" lon="2.38065">
        <ele>336.39999389648</ele>
        <time>2021-03-20T13:54:59Z</time>
      </trkpt>
      <trkpt lat="43.47649" lon="2.38073">
        <ele>337.20001220703</ele>
        <time>2021-03-20T13:55:11Z</time>
      </trkpt>
      <trkpt lat="43.47628" lon="2.38081">
        <ele>336</ele>
        <time>2021-03-20T13:55:27Z</time>
      </trkpt>
      <trkpt lat="43.47623" lon="2.38089">
        <ele>335.60000610352</ele>
        <time>2021-03-20T13:55:37Z</time>
      </trkpt>
      <trkpt lat="43.47622" lon="2.38091">
        <ele>335.60000610352</ele>
        <time>2021-03-20T13:55:38Z</time>
      </trkpt>
      <trkpt lat="43.47617" lon="2.38105">
        <ele>335.60000610352</ele>
        <time>2021-03-20T13:55:47Z</time>
      </trkpt>
      <trkpt lat="43.47613" lon="2.38135">
        <ele>335</ele>
        <time>2021-03-20T13:56:08Z</time>
      </trkpt>
      <trkpt lat="43.47606" lon="2.38154">
        <ele>337.60000610352</ele>
        <time>2021-03-20T13:56:27Z</time>
      </trkpt>
      <trkpt lat="43.47601" lon="2.38165">
        <ele>339.79998779297</ele>
        <time>2021-03-20T13:56:47Z</time>
      </trkpt>
      <trkpt lat="43.476" lon="2.38179">
        <ele>342</ele>
        <time>2021-03-20T13:57:06Z</time>
      </trkpt>
      <trkpt lat="43.47599" lon="2.38197">
        <ele>344</ele>
        <time>2021-03-20T13:57:25Z</time>
      </trkpt>
      <trkpt lat="43.476" lon="2.38212">
        <ele>345.20001220703</ele>
        <time>2021-03-20T13:57:44Z</time>
      </trkpt>
      <trkpt lat="43.47602" lon="2.38231">
        <ele>346.39999389648</ele>
        <time>2021-03-20T13:58:04Z</time>
      </trkpt>
      <trkpt lat="43.47598" lon="2.3825">
        <ele>346.79998779297</ele>
        <time>2021-03-20T13:58:20Z</time>
      </trkpt>
      <trkpt lat="43.47598" lon="2.38264">
        <ele>347.79998779297</ele>
        <time>2021-03-20T13:58:33Z</time>
      </trkpt>
      <trkpt lat="43.47599" lon="2.38275">
        <ele>351</ele>
        <time>2021-03-20T13:58:47Z</time>
      </trkpt>
      <trkpt lat="43.47603" lon="2.38285">
        <ele>353.20001220703</ele>
        <time>2021-03-20T13:59:03Z</time>
      </trkpt>
      <trkpt lat="43.4761" lon="2.38289">
        <ele>355.79998779297</ele>
        <time>2021-03-20T13:59:24Z</time>
      </trkpt>
      <trkpt lat="43.47616" lon="2.38292">
        <ele>358.79998779297</ele>
        <time>2021-03-20T13:59:45Z</time>
      </trkpt>
      <trkpt lat="43.47618" lon="2.38293">
        <ele>361.60000610352</ele>
        <time>2021-03-20T14:00:05Z</time>
      </trkpt>
      <trkpt lat="43.4762" lon="2.38294">
        <ele>364.79998779297</ele>
        <time>2021-03-20T14:00:18Z</time>
      </trkpt>
      <trkpt lat="43.47631" lon="2.38301">
        <ele>367.79998779297</ele>
        <time>2021-03-20T14:00:37Z</time>
      </trkpt>
      <trkpt lat="43.47636" lon="2.38315">
        <ele>370</ele>
        <time>2021-03-20T14:00:55Z</time>
      </trkpt>
      <trkpt lat="43.47629" lon="2.38324">
        <ele>371.79998779297</ele>
        <time>2021-03-20T14:01:11Z</time>
      </trkpt>
      <trkpt lat="43.47619" lon="2.3834">
        <ele>372.39999389648</ele>
        <time>2021-03-20T14:01:29Z</time>
      </trkpt>
      <trkpt lat="43.47614" lon="2.38348">
        <ele>372.79998779297</ele>
        <time>2021-03-20T14:01:44Z</time>
      </trkpt>
      <trkpt lat="43.4761" lon="2.38353">
        <ele>374.20001220703</ele>
        <time>2021-03-20T14:02:00Z</time>
      </trkpt>
      <trkpt lat="43.47607" lon="2.38347">
        <ele>374.79998779297</ele>
        <time>2021-03-20T14:02:19Z</time>
      </trkpt>
      <trkpt lat="43.47606" lon="2.38345">
        <ele>375.39999389648</ele>
        <time>2021-03-20T14:02:21Z</time>
      </trkpt>
      <trkpt lat="43.47589" lon="2.38335">
        <ele>376</ele>
        <time>2021-03-20T14:02:40Z</time>
      </trkpt>
      <trkpt lat="43.47579" lon="2.38333">
        <ele>377</ele>
        <time>2021-03-20T14:02:58Z</time>
      </trkpt>
      <trkpt lat="43.47564" lon="2.38329">
        <ele>378.39999389648</ele>
        <time>2021-03-20T14:03:15Z</time>
      </trkpt>
      <trkpt lat="43.47545" lon="2.38329">
        <ele>379.79998779297</ele>
        <time>2021-03-20T14:03:31Z</time>
      </trkpt>
      <trkpt lat="43.47532" lon="2.38331">
        <ele>381</ele>
        <time>2021-03-20T14:03:51Z</time>
      </trkpt>
      <trkpt lat="43.47511" lon="2.38341">
        <ele>382.79998779297</ele>
        <time>2021-03-20T14:04:10Z</time>
      </trkpt>
      <trkpt lat="43.47506" lon="2.38344">
        <ele>384.79998779297</ele>
        <time>2021-03-20T14:04:31Z</time>
      </trkpt>
      <trkpt lat="43.47495" lon="2.38348">
        <ele>385.39999389648</ele>
        <time>2021-03-20T14:04:49Z</time>
      </trkpt>
      <trkpt lat="43.47479" lon="2.38355">
        <ele>386</ele>
        <time>2021-03-20T14:05:01Z</time>
      </trkpt>
      <trkpt lat="43.47445" lon="2.38366">
        <ele>387.39999389648</ele>
        <time>2021-03-20T14:05:19Z</time>
      </trkpt>
      <trkpt lat="43.47421" lon="2.38368">
        <ele>388.39999389648</ele>
        <time>2021-03-20T14:05:35Z</time>
      </trkpt>
      <trkpt lat="43.47415" lon="2.38356">
        <ele>388.20001220703</ele>
        <time>2021-03-20T14:05:52Z</time>
      </trkpt>
      <trkpt lat="43.47415" lon="2.38354">
        <ele>388.20001220703</ele>
        <time>2021-03-20T14:05:53Z</time>
      </trkpt>
      <trkpt lat="43.47415" lon="2.38351">
        <ele>388.20001220703</ele>
        <time>2021-03-20T14:05:54Z</time>
      </trkpt>
      <trkpt lat="43.47416" lon="2.38349">
        <ele>388</ele>
        <time>2021-03-20T14:05:55Z</time>
      </trkpt>
      <trkpt lat="43.47416" lon="2.38347">
        <ele>388</ele>
        <time>2021-03-20T14:05:56Z</time>
      </trkpt>
      <trkpt lat="43.47408" lon="2.38333">
        <ele>387.20001220703</ele>
        <time>2021-03-20T14:06:04Z</time>
      </trkpt>
      <trkpt lat="43.47411" lon="2.38309">
        <ele>386.20001220703</ele>
        <time>2021-03-20T14:06:18Z</time>
      </trkpt>
      <trkpt lat="43.47414" lon="2.38302">
        <ele>386</ele>
        <time>2021-03-20T14:06:22Z</time>
      </trkpt>
      <trkpt lat="43.47429" lon="2.38276">
        <ele>385.20001220703</ele>
        <time>2021-03-20T14:06:42Z</time>
      </trkpt>
      <trkpt lat="43.47438" lon="2.3827">
        <ele>385.79998779297</ele>
        <time>2021-03-20T14:07:00Z</time>
      </trkpt>
      <trkpt lat="43.47438" lon="2.38271">
        <ele>386.20001220703</ele>
        <time>2021-03-20T14:07:01Z</time>
      </trkpt>
      <trkpt lat="43.47452" lon="2.38277">
        <ele>386.20001220703</ele>
        <time>2021-03-20T14:07:22Z</time>
      </trkpt>
      <trkpt lat="43.47453" lon="2.38284">
        <ele>385.79998779297</ele>
        <time>2021-03-20T14:07:46Z</time>
      </trkpt>
      <trkpt lat="43.47453" lon="2.38288">
        <ele>386.20001220703</ele>
        <time>2021-03-20T14:08:11Z</time>
      </trkpt>
      <trkpt lat="43.47453" lon="2.38287">
        <ele>386.20001220703</ele>
        <time>2021-03-20T14:08:32Z</time>
      </trkpt>
      <trkpt lat="43.47456" lon="2.38287">
        <ele>386.39999389648</ele>
        <time>2021-03-20T14:08:36Z</time>
      </trkpt>
    </trkseg>
  </trk>
</gpx>